Time,TemperatureF,DewpointF,PressureIn,WindDirection,WindDirectionDegrees,WindSpeedMPH,WindSpeedGustMPH,Humidity,HourlyPrecipIn,Conditions,Clouds,dailyrainin,SoftwareType,DateUTC
2009-02-05 00:00:00,48.0,40.8,29.92,WSW,256,3.0,4.0,76,0.00,,,0.00,Wunderground v.1.15,2009-02-05 08:00:00,
2009-02-05 00:03:00,47.8,40.9,29.92,SSW,210,1.0,4.0,77,0.00,,,0.00,Wunderground v.1.15,2009-02-05 08:03:00,
2009-02-05 00:06:00,47.7,41.2,29.92,SW,227,7.0,7.0,78,0.00,,,0.00,Wunderground v.1.15,2009-02-05 08:06:00,
2009-02-05 00:09:00,47.7,41.8,29.92,SW,221,1.0,7.0,80,0.00,,,0.00,Wunderground v.1.15,2009-02-05 08:09:00,
2009-02-05 00:11:00,47.6,41.7,29.92,SSW,213,11.0,11.0,80,0.00,,,0.00,Wunderground v.1.15,2009-02-05 08:11:00,
2009-02-05 00:13:00,47.6,42.1,29.92,SW,222,4.0,11.0,81,0.00,,,0.00,Wunderground v.1.15,2009-02-05 08:13:00,
2009-02-05 00:15:00,47.6,42.1,29.92,SSW,211,6.0,11.0,81,0.00,,,0.00,Wunderground v.1.15,2009-02-05 08:15:00,
2009-02-05 00:18:00,47.6,42.1,29.92,WSW,253,5.0,11.0,81,0.00,,,0.00,Wunderground v.1.15,2009-02-05 08:18:00,
2009-02-05 00:19:00,47.6,42.1,29.92,SW,225,6.0,11.0,81,0.00,,,0.00,Wunderground v.1.15,2009-02-05 08:19:00,
2009-02-05 00:21:00,47.6,42.1,29.92,West,268,0.0,8.0,81,0.00,,,0.00,Wunderground v.1.15,2009-02-05 08:21:00,
2009-02-05 00:24:00,47.5,42.0,29.91,South,189,3.0,8.0,81,0.00,,,0.00,Wunderground v.1.15,2009-02-05 08:24:00,
2009-02-05 00:25:00,47.4,41.9,29.91,SW,231,3.0,8.0,81,0.00,,,0.00,Wunderground v.1.15,2009-02-05 08:25:00,
2009-02-05 00:29:00,47.3,42.1,29.91,South,188,2.0,8.0,82,0.00,,,0.00,Wunderground v.1.15,2009-02-05 08:29:00,
2009-02-05 00:30:00,47.3,42.1,29.91,South,188,0.0,3.0,82,0.00,,,0.00,Wunderground v.1.15,2009-02-05 08:30:00,
2009-02-05 00:32:00,47.2,42.0,29.91,SW,223,3.0,3.0,82,0.00,,,0.00,Wunderground v.1.15,2009-02-05 08:32:00,
2009-02-05 00:34:00,47.1,41.9,29.91,SW,221,0.0,3.0,82,0.00,,,0.00,Wunderground v.1.15,2009-02-05 08:34:00,
2009-02-05 00:36:00,47.0,41.8,29.92,SSW,192,3.0,3.0,82,0.00,,,0.00,Wunderground v.1.15,2009-02-05 08:36:00,
2009-02-05 00:37:00,47.0,41.8,29.92,SSW,207,6.0,6.0,82,0.00,,,0.00,Wunderground v.1.15,2009-02-05 08:37:00,
2009-02-05 00:41:00,47.0,41.5,29.92,South,190,3.0,5.0,81,0.00,,,0.00,Wunderground v.1.15,2009-02-05 08:41:00,
2009-02-05 00:42:00,47.1,41.6,29.92,SW,215,2.0,5.0,81,0.00,,,0.00,Wunderground v.1.15,2009-02-05 08:42:00,
2009-02-05 00:45:00,47.3,41.8,29.91,SSW,205,5.0,13.0,81,0.00,,,0.00,Wunderground v.1.15,2009-02-05 08:45:00,
2009-02-05 00:46:00,47.3,41.8,29.92,SSW,213,6.0,13.0,81,0.00,,,0.00,Wunderground v.1.15,2009-02-05 08:46:00,
2009-02-05 00:49:00,47.5,42.0,29.92,SSW,205,5.0,13.0,81,0.00,,,0.00,Wunderground v.1.15,2009-02-05 08:49:00,
2009-02-05 00:51:00,47.6,42.1,29.92,SW,232,3.0,6.0,81,0.00,,,0.00,Wunderground v.1.15,2009-02-05 08:51:00,
2009-02-05 00:53:00,47.6,42.1,29.91,SW,215,7.0,7.0,81,0.00,,,0.00,Wunderground v.1.15,2009-02-05 08:53:00,
2009-02-05 00:56:00,47.7,42.2,29.91,SW,223,6.0,7.0,81,0.00,,,0.00,Wunderground v.1.15,2009-02-05 08:56:00,
2009-02-05 00:58:00,47.8,42.6,29.91,SW,227,7.0,7.0,82,0.00,,,0.00,Wunderground v.1.15,2009-02-05 08:58:00,
2009-02-05 00:59:00,47.8,42.6,29.91,SW,224,7.0,7.0,82,0.00,,,0.00,Wunderground v.1.15,2009-02-05 08:59:00,
2009-02-05 01:03:00,47.8,42.9,29.91,WSW,256,7.0,7.0,83,0.00,,,0.00,Wunderground v.1.15,2009-02-05 09:03:00,
2009-02-05 01:04:00,47.9,43.0,29.91,SSW,208,7.0,7.0,83,0.00,,,0.00,Wunderground v.1.15,2009-02-05 09:04:00,
2009-02-05 01:06:00,47.9,43.0,29.91,SSW,208,5.0,7.0,83,0.00,,,0.00,Wunderground v.1.15,2009-02-05 09:06:00,
2009-02-05 01:07:00,47.9,43.0,29.92,SSW,207,2.0,7.0,83,0.00,,,0.00,Wunderground v.1.15,2009-02-05 09:07:00,
2009-02-05 01:11:00,47.9,43.0,29.91,SSW,203,4.0,6.0,83,0.00,,,0.00,Wunderground v.1.15,2009-02-05 09:11:00,
2009-02-05 01:13:00,47.9,43.3,29.91,WNW,300,4.0,6.0,84,0.00,,,0.00,Wunderground v.1.15,2009-02-05 09:13:00,
2009-02-05 01:17:00,47.8,43.5,29.92,WNW,300,4.0,6.0,85,0.00,,,0.00,Wunderground v.1.15,2009-02-05 09:17:00,
2009-02-05 01:18:00,47.7,43.4,29.92,West,272,2.0,6.0,85,0.00,,,0.00,Wunderground v.1.15,2009-02-05 09:18:00,
2009-02-05 01:19:00,47.7,43.7,29.92,WSW,240,7.0,7.0,86,0.00,,,0.00,Wunderground v.1.15,2009-02-05 09:19:00,
2009-02-05 01:20:00,47.6,43.6,29.92,WNW,288,3.0,4.0,86,0.00,,,0.01,Wunderground v.1.15,2009-02-05 09:20:00,
2009-02-05 01:22:00,47.3,43.6,29.92,WNW,298,2.0,4.0,87,0.75,,,0.03,Wunderground v.1.15,2009-02-05 09:22:00,
2009-02-05 01:24:00,47.0,43.3,29.91,WNW,292,4.0,4.0,87,0.35,,,0.04,Wunderground v.1.15,2009-02-05 09:24:00,
2009-02-05 01:26:00,46.6,43.2,29.91,West,265,3.0,4.0,88,0.31,,,0.05,Wunderground v.1.15,2009-02-05 09:26:00,
2009-02-05 01:27:00,46.5,43.4,29.91,WSW,254,3.0,4.0,89,0.28,,,0.05,Wunderground v.1.15,2009-02-05 09:27:00,
2009-02-05 01:28:00,46.3,43.2,29.91,West,268,5.0,5.0,89,0.23,,,0.06,Wunderground v.1.15,2009-02-05 09:28:00,
2009-02-05 01:32:00,45.9,43.1,29.91,SW,225,3.0,9.0,90,0.14,,,0.06,Wunderground v.1.15,2009-02-05 09:32:00,
2009-02-05 01:33:00,45.9,43.1,29.91,WSW,238,2.0,9.0,90,0.11,,,0.06,Wunderground v.1.15,2009-02-05 09:33:00,
2009-02-05 01:35:00,45.8,43.3,29.91,WSW,248,4.0,9.0,91,0.08,,,0.06,Wunderground v.1.15,2009-02-05 09:35:00,
2009-02-05 01:38:00,45.7,43.2,29.91,SSW,197,6.0,9.0,91,0.06,,,0.06,Wunderground v.1.15,2009-02-05 09:38:00,
2009-02-05 01:40:00,45.7,43.5,29.91,SW,222,6.0,6.0,92,0.05,,,0.07,Wunderground v.1.15,2009-02-05 09:40:00,
2009-02-05 01:42:00,45.7,43.5,29.91,WSW,248,5.0,6.0,92,0.05,,,0.07,Wunderground v.1.15,2009-02-05 09:42:00,
2009-02-05 01:43:00,45.7,43.5,29.91,SW,229,7.0,7.0,92,0.05,,,0.07,Wunderground v.1.15,2009-02-05 09:43:00,
2009-02-05 01:45:00,45.7,43.5,29.91,SSW,200,2.0,7.0,92,0.05,,,0.07,Wunderground v.1.15,2009-02-05 09:45:00,
2009-02-05 01:48:00,45.7,43.5,29.91,SSW,213,6.0,7.0,92,0.05,,,0.07,Wunderground v.1.15,2009-02-05 09:48:00,
2009-02-05 01:50:00,45.8,43.6,29.91,SSW,198,5.0,5.0,92,0.05,,,0.07,Wunderground v.1.15,2009-02-05 09:50:00,
2009-02-05 01:52:00,45.8,43.6,29.91,SW,215,3.0,5.0,92,0.04,,,0.07,Wunderground v.1.15,2009-02-05 09:52:00,
2009-02-05 01:53:00,45.8,43.6,29.91,SSW,200,6.0,6.0,92,0.04,,,0.07,Wunderground v.1.15,2009-02-05 09:53:00,
2009-02-05 01:55:00,45.8,43.6,29.91,SW,215,7.0,7.0,92,0.04,,,0.07,Wunderground v.1.15,2009-02-05 09:55:00,
2009-02-05 01:56:00,45.8,43.6,29.91,South,179,5.0,7.0,92,0.00,,,0.07,Wunderground v.1.15,2009-02-05 09:56:00,
2009-02-05 02:01:00,45.7,43.5,29.91,SW,218,5.0,7.0,92,0.00,,,0.07,Wunderground v.1.15,2009-02-05 10:01:00,
2009-02-05 02:06:00,45.7,43.5,29.91,WSW,242,2.0,9.0,92,0.00,,,0.08,Wunderground v.1.15,2009-02-05 10:06:00,
2009-02-05 02:07:00,45.6,43.4,29.91,WNW,288,2.0,9.0,92,0.00,,,0.08,Wunderground v.1.15,2009-02-05 10:07:00,
2009-02-05 02:11:00,45.6,43.7,29.92,WNW,291,4.0,7.0,93,0.00,,,0.08,Wunderground v.1.15,2009-02-05 10:11:00,
2009-02-05 02:12:00,45.6,43.4,29.92,NW,306,3.0,7.0,92,0.00,,,0.08,Wunderground v.1.15,2009-02-05 10:12:00,
2009-02-05 02:16:00,45.5,43.6,29.91,SW,232,3.0,10.0,93,0.06,,,0.09,Wunderground v.1.15,2009-02-05 10:16:00,
2009-02-05 02:17:00,45.5,43.6,29.91,SW,232,3.0,10.0,93,0.06,,,0.09,Wunderground v.1.15,2009-02-05 10:17:00,
2009-02-05 02:22:00,45.3,43.1,29.91,SW,229,4.0,5.0,92,0.12,,,0.10,Wunderground v.1.15,2009-02-05 10:22:00,
2009-02-05 02:27:00,45.2,43.0,29.91,SW,221,1.0,7.0,92,0.08,,,0.10,Wunderground v.1.15,2009-02-05 10:27:00,
2009-02-05 02:32:00,45.0,43.1,29.91,SSW,202,3.0,6.0,93,0.06,,,0.11,Wunderground v.1.15,2009-02-05 10:32:00,
2009-02-05 02:33:00,45.0,43.1,29.91,South,190,4.0,7.0,93,0.06,,,0.11,Wunderground v.1.15,2009-02-05 10:33:00,
2009-02-05 02:37:00,45.0,43.1,29.91,West,267,2.0,7.0,93,0.06,,,0.11,Wunderground v.1.15,2009-02-05 10:37:00,
2009-02-05 02:38:00,44.9,43.0,29.91,SSW,213,2.0,7.0,93,0.07,,,0.12,Wunderground v.1.15,2009-02-05 10:38:00,
2009-02-05 02:42:00,44.8,42.9,29.91,SSW,213,0.0,2.0,93,0.07,,,0.12,Wunderground v.1.15,2009-02-05 10:42:00,
2009-02-05 02:43:00,44.8,42.9,29.91,SSW,213,0.0,2.0,93,0.07,,,0.12,Wunderground v.1.15,2009-02-05 10:43:00,
2009-02-05 02:48:00,44.7,42.8,29.91,SSW,213,0.0,4.0,93,0.06,,,0.12,Wunderground v.1.15,2009-02-05 10:48:00,
2009-02-05 02:53:00,44.6,42.7,29.90,SSW,212,6.0,7.0,93,0.04,,,0.12,Wunderground v.1.15,2009-02-05 10:53:00,
2009-02-05 02:58:00,44.5,42.6,29.91,SSW,203,2.0,7.0,93,0.00,,,0.13,Wunderground v.1.15,2009-02-05 10:58:00,
2009-02-05 02:59:00,44.4,42.5,29.91,South,190,3.0,7.0,93,0.00,,,0.13,Wunderground v.1.15,2009-02-05 10:59:00,
2009-02-05 03:03:00,44.3,42.1,29.91,SSW,211,2.0,6.0,92,0.00,,,0.13,Wunderground v.1.15,2009-02-05 11:03:00,
2009-02-05 03:04:00,44.3,42.1,29.91,SSW,195,5.0,11.0,92,0.00,,,0.13,Wunderground v.1.15,2009-02-05 11:04:00,
2009-02-05 03:08:00,44.3,42.1,29.91,South,183,0.0,11.0,92,0.05,,,0.14,Wunderground v.1.15,2009-02-05 11:08:00,
2009-02-05 03:09:00,44.3,42.1,29.91,South,184,1.0,11.0,92,0.05,,,0.14,Wunderground v.1.15,2009-02-05 11:09:00,
2009-02-05 03:13:00,44.2,42.0,29.91,South,190,2.0,4.0,92,0.05,,,0.14,Wunderground v.1.15,2009-02-05 11:13:00,
2009-02-05 03:14:00,44.2,42.0,29.91,South,190,1.0,4.0,92,0.05,,,0.14,Wunderground v.1.15,2009-02-05 11:14:00,
2009-02-05 03:15:00,44.2,42.0,29.91,South,190,0.0,4.0,92,0.05,,,0.14,Wunderground v.1.15,2009-02-05 11:15:00,
2009-02-05 03:18:00,44.0,41.8,29.91,SSW,196,6.0,6.0,92,0.06,,,0.15,Wunderground v.1.15,2009-02-05 11:18:00,
2009-02-05 03:19:00,44.0,41.8,29.91,SSW,199,2.0,6.0,92,0.06,,,0.15,Wunderground v.1.15,2009-02-05 11:19:00,
2009-02-05 03:20:00,44.1,41.9,29.91,SSW,199,5.0,5.0,92,0.06,,,0.15,Wunderground v.1.15,2009-02-05 11:20:00,
2009-02-05 03:24:00,44.1,41.9,29.91,South,188,2.0,5.0,92,0.06,,,0.15,Wunderground v.1.15,2009-02-05 11:24:00,
2009-02-05 03:25:00,44.1,41.9,29.92,South,188,4.0,5.0,92,0.06,,,0.15,Wunderground v.1.15,2009-02-05 11:25:00,
2009-02-05 03:29:00,44.1,41.9,29.92,South,186,0.0,7.0,92,0.05,,,0.15,Wunderground v.1.15,2009-02-05 11:29:00,
2009-02-05 03:30:00,44.1,41.9,29.92,South,186,2.0,3.0,92,0.04,,,0.15,Wunderground v.1.15,2009-02-05 11:30:00,
2009-02-05 03:34:00,44.0,41.8,29.92,South,186,4.0,5.0,92,0.00,,,0.15,Wunderground v.1.15,2009-02-05 11:34:00,
2009-02-05 03:35:00,44.0,41.8,29.92,SW,214,2.0,5.0,92,0.00,,,0.15,Wunderground v.1.15,2009-02-05 11:35:00,
2009-02-05 03:39:00,44.0,41.8,29.91,SSW,199,2.0,5.0,92,0.00,,,0.16,Wunderground v.1.15,2009-02-05 11:39:00,
2009-02-05 03:40:00,44.0,41.8,29.91,SSW,200,3.0,3.0,92,0.00,,,0.16,Wunderground v.1.15,2009-02-05 11:40:00,
2009-02-05 03:44:00,44.0,41.8,29.91,SSW,207,0.0,4.0,92,0.00,,,0.16,Wunderground v.1.15,2009-02-05 11:44:00,
2009-02-05 03:45:00,44.0,41.8,29.91,SSW,207,0.0,4.0,92,0.00,,,0.16,Wunderground v.1.15,2009-02-05 11:45:00,
2009-02-05 03:46:00,44.0,41.8,29.91,SSW,207,1.0,4.0,92,0.00,,,0.16,Wunderground v.1.15,2009-02-05 11:46:00,
2009-02-05 03:49:00,43.9,41.7,29.91,SSW,207,0.0,4.0,92,0.00,,,0.16,Wunderground v.1.15,2009-02-05 11:49:00,
2009-02-05 03:50:00,43.9,41.7,29.91,SSW,207,0.0,1.0,92,0.00,,,0.16,Wunderground v.1.15,2009-02-05 11:50:00,
2009-02-05 03:51:00,43.9,41.7,29.91,SSW,207,0.0,1.0,92,0.00,,,0.16,Wunderground v.1.15,2009-02-05 11:51:00,
2009-02-05 03:55:00,43.8,41.6,29.91,SSW,207,1.0,1.0,92,0.00,,,0.16,Wunderground v.1.15,2009-02-05 11:55:00,
2009-02-05 03:56:00,43.8,41.9,29.91,SSW,207,0.0,1.0,93,0.00,,,0.16,Wunderground v.1.15,2009-02-05 11:56:00,
2009-02-05 04:00:00,43.8,41.9,29.90,SE,130,1.0,1.0,93,0.00,,,0.16,Wunderground v.1.15,2009-02-05 12:00:00,
2009-02-05 04:01:00,43.8,41.9,29.90,SE,129,0.0,2.0,93,0.00,,,0.16,Wunderground v.1.15,2009-02-05 12:01:00,
2009-02-05 04:05:00,43.7,41.8,29.90,SE,130,0.0,2.0,93,0.00,,,0.16,Wunderground v.1.15,2009-02-05 12:05:00,
2009-02-05 04:06:00,43.7,41.8,29.90,SE,129,1.0,2.0,93,0.00,,,0.16,Wunderground v.1.15,2009-02-05 12:06:00,
2009-02-05 04:10:00,43.6,41.7,29.90,SE,130,0.0,1.0,93,0.00,,,0.17,Wunderground v.1.15,2009-02-05 12:10:00,
2009-02-05 04:11:00,43.6,41.7,29.90,SE,129,0.0,1.0,93,0.00,,,0.17,Wunderground v.1.15,2009-02-05 12:11:00,
2009-02-05 04:12:00,43.6,41.7,29.90,SE,130,0.0,1.0,93,0.00,,,0.17,Wunderground v.1.15,2009-02-05 12:12:00,
2009-02-05 04:15:00,43.6,41.7,29.90,SE,130,0.0,1.0,93,0.00,,,0.17,Wunderground v.1.15,2009-02-05 12:15:00,
2009-02-05 04:16:00,43.6,42.0,29.90,SE,129,0.0,1.0,94,0.00,,,0.17,Wunderground v.1.15,2009-02-05 12:16:00,
2009-02-05 04:17:00,43.5,41.9,29.90,SE,130,2.0,2.0,94,0.00,,,0.17,Wunderground v.1.15,2009-02-05 12:17:00,
2009-02-05 04:20:00,43.6,42.0,29.90,SE,130,0.0,0.0,94,0.00,,,0.17,Wunderground v.1.15,2009-02-05 12:20:00,
2009-02-05 04:21:00,43.6,42.0,29.90,SE,130,0.0,0.0,94,0.00,,,0.17,Wunderground v.1.15,2009-02-05 12:21:00,
2009-02-05 04:22:00,43.6,42.0,29.90,SE,130,0.0,1.0,94,0.00,,,0.17,Wunderground v.1.15,2009-02-05 12:22:00,
2009-02-05 04:23:00,43.6,42.0,29.90,SE,130,0.0,1.0,94,0.00,,,0.17,Wunderground v.1.15,2009-02-05 12:23:00,
2009-02-05 04:26:00,43.6,42.0,29.91,SE,130,0.0,2.0,94,0.00,,,0.17,Wunderground v.1.15,2009-02-05 12:26:00,
2009-02-05 04:27:00,43.6,42.0,29.91,SE,129,0.0,2.0,94,0.00,,,0.17,Wunderground v.1.15,2009-02-05 12:27:00,
2009-02-05 04:28:00,43.6,42.0,29.91,SE,130,0.0,2.0,94,0.00,,,0.17,Wunderground v.1.15,2009-02-05 12:28:00,
2009-02-05 04:31:00,43.6,42.0,29.91,ESE,123,1.0,1.0,94,0.00,,,0.17,Wunderground v.1.15,2009-02-05 12:31:00,
2009-02-05 04:32:00,43.7,42.4,29.91,East,83,0.0,3.0,95,0.00,,,0.17,Wunderground v.1.15,2009-02-05 12:32:00,
2009-02-05 04:33:00,43.7,42.4,29.90,East,83,1.0,3.0,95,0.00,,,0.17,Wunderground v.1.15,2009-02-05 12:33:00,
2009-02-05 04:36:00,43.7,42.4,29.91,East,83,0.0,3.0,95,0.00,,,0.17,Wunderground v.1.15,2009-02-05 12:36:00,
2009-02-05 04:37:00,43.7,42.4,29.91,East,83,0.0,3.0,95,0.00,,,0.17,Wunderground v.1.15,2009-02-05 12:37:00,
2009-02-05 04:38:00,43.8,42.5,29.91,East,83,0.0,3.0,95,0.00,,,0.17,Wunderground v.1.15,2009-02-05 12:38:00,
2009-02-05 04:41:00,43.7,42.4,29.91,East,83,0.0,0.0,95,0.00,,,0.17,Wunderground v.1.15,2009-02-05 12:41:00,
2009-02-05 04:42:00,43.8,42.2,29.91,East,83,0.0,0.0,94,0.00,,,0.17,Wunderground v.1.15,2009-02-05 12:42:00,
2009-02-05 04:43:00,43.8,42.2,29.91,East,83,0.0,0.0,94,0.00,,,0.17,Wunderground v.1.15,2009-02-05 12:43:00,
2009-02-05 04:46:00,43.8,42.2,29.91,East,84,0.0,2.0,94,0.00,,,0.17,Wunderground v.1.15,2009-02-05 12:46:00,
2009-02-05 04:47:00,43.8,42.2,29.91,East,84,1.0,2.0,94,0.00,,,0.17,Wunderground v.1.15,2009-02-05 12:47:00,
2009-02-05 04:49:00,43.8,42.2,29.91,East,85,0.0,2.0,94,0.00,,,0.17,Wunderground v.1.15,2009-02-05 12:49:00,
2009-02-05 04:51:00,43.8,42.2,29.91,SW,214,4.0,4.0,94,0.00,,,0.17,Wunderground v.1.15,2009-02-05 12:51:00,
2009-02-05 04:52:00,43.8,42.2,29.91,SSW,207,0.0,4.0,94,0.00,,,0.17,Wunderground v.1.15,2009-02-05 12:52:00,
2009-02-05 04:53:00,43.8,42.2,29.91,SSW,207,0.0,4.0,94,0.00,,,0.17,Wunderground v.1.15,2009-02-05 12:53:00,
2009-02-05 04:54:00,43.8,42.2,29.90,East,87,0.0,4.0,94,0.00,,,0.17,Wunderground v.1.15,2009-02-05 12:54:00,
2009-02-05 04:56:00,43.8,41.9,29.90,East,87,0.0,4.0,93,0.00,,,0.17,Wunderground v.1.15,2009-02-05 12:56:00,
2009-02-05 04:57:00,43.8,41.9,29.90,East,87,0.0,4.0,93,0.00,,,0.17,Wunderground v.1.15,2009-02-05 12:57:00,
2009-02-05 04:59:00,43.8,41.9,29.90,East,87,0.0,4.0,93,0.00,,,0.17,Wunderground v.1.15,2009-02-05 12:59:00,
2009-02-05 05:00:00,43.8,41.9,29.90,East,87,0.0,0.0,93,0.00,,,0.17,Wunderground v.1.15,2009-02-05 13:00:00,
2009-02-05 05:02:00,43.8,41.9,29.90,East,87,0.0,1.0,93,0.00,,,0.17,Wunderground v.1.15,2009-02-05 13:02:00,
2009-02-05 05:04:00,43.8,41.9,29.90,East,87,0.0,1.0,93,0.00,,,0.17,Wunderground v.1.15,2009-02-05 13:04:00,
2009-02-05 05:05:00,43.8,41.9,29.90,East,87,0.0,1.0,93,0.00,,,0.17,Wunderground v.1.15,2009-02-05 13:05:00,
2009-02-05 05:07:00,43.8,41.9,29.90,East,87,0.0,1.0,93,0.00,,,0.17,Wunderground v.1.15,2009-02-05 13:07:00,
2009-02-05 05:08:00,43.8,41.9,29.90,East,87,0.0,1.0,93,0.00,,,0.17,Wunderground v.1.15,2009-02-05 13:08:00,
2009-02-05 05:09:00,43.8,41.9,29.90,East,87,0.0,1.0,93,0.00,,,0.17,Wunderground v.1.15,2009-02-05 13:09:00,
2009-02-05 05:10:00,43.7,41.8,29.90,East,87,1.0,1.0,93,0.00,,,0.17,Wunderground v.1.15,2009-02-05 13:10:00,
2009-02-05 05:12:00,43.8,41.9,29.90,ENE,76,0.0,3.0,93,0.00,,,0.17,Wunderground v.1.15,2009-02-05 13:12:00,
2009-02-05 05:13:00,43.8,41.9,29.90,ENE,76,0.0,3.0,93,0.00,,,0.17,Wunderground v.1.15,2009-02-05 13:13:00,
2009-02-05 05:14:00,43.8,41.9,29.90,ENE,75,0.0,3.0,93,0.00,,,0.17,Wunderground v.1.15,2009-02-05 13:14:00,
2009-02-05 05:15:00,43.8,41.9,29.90,ENE,76,0.0,3.0,93,0.00,,,0.17,Wunderground v.1.15,2009-02-05 13:15:00,
2009-02-05 05:17:00,43.7,41.8,29.90,ENE,75,0.0,3.0,93,0.00,,,0.17,Wunderground v.1.15,2009-02-05 13:17:00,
2009-02-05 05:18:00,43.7,41.8,29.90,ENE,75,0.0,3.0,93,0.00,,,0.17,Wunderground v.1.15,2009-02-05 13:18:00,
2009-02-05 05:20:00,43.6,41.7,29.90,ENE,76,0.0,0.0,93,0.00,,,0.17,Wunderground v.1.15,2009-02-05 13:20:00,
2009-02-05 05:21:00,43.6,41.7,29.89,ENE,75,0.0,0.0,93,0.00,,,0.17,Wunderground v.1.15,2009-02-05 13:21:00,
2009-02-05 05:22:00,43.7,41.8,29.89,ENE,76,0.0,1.0,93,0.00,,,0.17,Wunderground v.1.15,2009-02-05 13:22:00,
2009-02-05 05:23:00,43.7,41.8,29.90,ENE,76,0.0,1.0,93,0.00,,,0.17,Wunderground v.1.15,2009-02-05 13:23:00,
2009-02-05 05:25:00,43.6,41.7,29.90,ENE,75,0.0,1.0,93,0.00,,,0.17,Wunderground v.1.15,2009-02-05 13:25:00,
2009-02-05 05:26:00,43.6,41.7,29.90,ENE,76,0.0,1.0,93,0.00,,,0.17,Wunderground v.1.15,2009-02-05 13:26:00,
2009-02-05 05:27:00,43.6,41.7,29.90,ENE,75,1.0,1.0,93,0.00,,,0.17,Wunderground v.1.15,2009-02-05 13:27:00,
2009-02-05 05:28:00,43.6,41.7,29.90,SSW,196,0.0,2.0,93,0.00,,,0.17,Wunderground v.1.15,2009-02-05 13:28:00,
2009-02-05 05:30:00,43.6,41.7,29.90,SSW,196,0.0,0.0,93,0.00,,,0.17,Wunderground v.1.15,2009-02-05 13:30:00,
2009-02-05 05:32:00,43.6,41.7,29.90,SSW,192,0.0,2.0,93,0.00,,,0.17,Wunderground v.1.15,2009-02-05 13:32:00,
2009-02-05 05:33:00,43.6,41.7,29.90,SSW,192,0.0,2.0,93,0.00,,,0.17,Wunderground v.1.15,2009-02-05 13:33:00,
2009-02-05 05:35:00,43.6,41.4,29.90,ESE,109,1.0,2.0,92,0.00,,,0.17,Wunderground v.1.15,2009-02-05 13:35:00,
2009-02-05 05:37:00,43.6,41.4,29.90,ESE,109,0.0,2.0,92,0.00,,,0.17,Wunderground v.1.15,2009-02-05 13:37:00,
2009-02-05 05:38:00,43.6,41.4,29.90,ESE,109,1.0,2.0,92,0.00,,,0.17,Wunderground v.1.15,2009-02-05 13:38:00,
2009-02-05 05:39:00,43.7,41.5,29.90,East,98,0.0,4.0,92,0.00,,,0.17,Wunderground v.1.15,2009-02-05 13:39:00,
2009-02-05 05:40:00,43.7,41.5,29.90,SE,136,2.0,2.0,92,0.00,,,0.17,Wunderground v.1.15,2009-02-05 13:40:00,
2009-02-05 05:42:00,43.8,41.6,29.90,SE,136,1.0,2.0,92,0.00,,,0.17,Wunderground v.1.15,2009-02-05 13:42:00,
2009-02-05 05:43:00,43.7,41.5,29.90,SE,136,0.0,2.0,92,0.00,,,0.17,Wunderground v.1.15,2009-02-05 13:43:00,
2009-02-05 05:44:00,43.7,41.5,29.90,SE,136,0.0,2.0,92,0.00,,,0.17,Wunderground v.1.15,2009-02-05 13:44:00,
2009-02-05 05:46:00,43.7,41.5,29.90,SE,136,0.0,2.0,92,0.00,,,0.17,Wunderground v.1.15,2009-02-05 13:46:00,
2009-02-05 05:47:00,43.7,41.5,29.90,SE,136,0.0,2.0,92,0.00,,,0.17,Wunderground v.1.15,2009-02-05 13:47:00,
2009-02-05 05:48:00,43.7,41.5,29.90,SE,136,0.0,2.0,92,0.00,,,0.17,Wunderground v.1.15,2009-02-05 13:48:00,
2009-02-05 05:49:00,43.7,41.5,29.90,East,89,1.0,3.0,92,0.00,,,0.17,Wunderground v.1.15,2009-02-05 13:49:00,
2009-02-05 05:51:00,43.7,41.5,29.90,East,79,0.0,1.0,92,0.00,,,0.17,Wunderground v.1.15,2009-02-05 13:51:00,
2009-02-05 05:53:00,43.7,41.5,29.90,SSW,199,0.0,3.0,92,0.00,,,0.17,Wunderground v.1.15,2009-02-05 13:53:00,
2009-02-05 05:54:00,43.7,41.5,29.90,SSE,161,0.0,3.0,92,0.00,,,0.17,Wunderground v.1.15,2009-02-05 13:54:00,
2009-02-05 05:56:00,43.7,41.5,29.90,SSE,161,0.0,3.0,92,0.00,,,0.17,Wunderground v.1.15,2009-02-05 13:56:00,
2009-02-05 05:58:00,43.8,41.6,29.90,SSE,162,0.0,3.0,92,0.00,,,0.17,Wunderground v.1.15,2009-02-05 13:58:00,
2009-02-05 05:59:00,43.8,41.6,29.90,SSE,162,0.0,3.0,92,0.00,,,0.17,Wunderground v.1.15,2009-02-05 13:59:00,
2009-02-05 06:01:00,43.8,41.6,29.90,SSW,199,2.0,2.0,92,0.00,,,0.17,Wunderground v.1.15,2009-02-05 14:01:00,
2009-02-05 06:04:00,43.9,41.7,29.90,South,191,0.0,3.0,92,0.00,,,0.17,Wunderground v.1.15,2009-02-05 14:04:00,
2009-02-05 06:07:00,44.0,41.5,29.90,South,191,2.0,3.0,91,0.00,,,0.17,Wunderground v.1.15,2009-02-05 14:07:00,
2009-02-05 06:09:00,44.0,41.5,29.90,South,170,2.0,6.0,91,0.00,,,0.17,Wunderground v.1.15,2009-02-05 14:09:00,
2009-02-05 06:10:00,44.0,41.5,29.90,SSW,194,2.0,2.0,91,0.00,,,0.17,Wunderground v.1.15,2009-02-05 14:10:00,
2009-02-05 06:12:00,44.1,41.4,29.90,SSE,161,0.0,3.0,90,0.00,,,0.17,Wunderground v.1.15,2009-02-05 14:12:00,
2009-02-05 06:14:00,44.2,41.5,29.90,SSE,148,0.0,3.0,90,0.00,,,0.17,Wunderground v.1.15,2009-02-05 14:14:00,
2009-02-05 06:15:00,44.2,41.5,29.90,SSE,148,1.0,3.0,90,0.00,,,0.17,Wunderground v.1.15,2009-02-05 14:15:00,
2009-02-05 06:17:00,44.3,41.6,29.90,West,271,0.0,3.0,90,0.00,,,0.17,Wunderground v.1.15,2009-02-05 14:17:00,
2009-02-05 06:19:00,44.3,41.6,29.90,South,190,3.0,4.0,90,0.00,,,0.17,Wunderground v.1.15,2009-02-05 14:19:00,
2009-02-05 06:20:00,44.3,41.6,29.90,WNW,290,0.0,4.0,90,0.00,,,0.17,Wunderground v.1.15,2009-02-05 14:20:00,
2009-02-05 06:22:00,44.4,41.4,29.90,SSW,196,1.0,4.0,89,0.00,,,0.17,Wunderground v.1.15,2009-02-05 14:22:00,
2009-02-05 06:25:00,44.4,41.4,29.90,SSW,203,5.0,8.0,89,0.00,,,0.17,Wunderground v.1.15,2009-02-05 14:25:00,
2009-02-05 06:27:00,44.5,41.5,29.90,SW,225,2.0,8.0,89,0.00,,,0.17,Wunderground v.1.15,2009-02-05 14:27:00,
2009-02-05 06:30:00,44.5,41.5,29.90,SW,219,0.0,5.0,89,0.00,,,0.17,Wunderground v.1.15,2009-02-05 14:30:00,
2009-02-05 06:31:00,44.5,41.5,29.90,SW,219,3.0,5.0,89,0.00,,,0.17,Wunderground v.1.15,2009-02-05 14:31:00,
2009-02-05 06:32:00,44.6,41.6,29.91,SW,227,4.0,7.0,89,0.00,,,0.17,Wunderground v.1.15,2009-02-05 14:32:00,
2009-02-05 06:36:00,44.7,41.4,29.91,WSW,237,1.0,10.0,88,0.00,,,0.17,Wunderground v.1.15,2009-02-05 14:36:00,
2009-02-05 06:37:00,44.7,41.7,29.91,SW,230,5.0,10.0,89,0.00,,,0.17,Wunderground v.1.15,2009-02-05 14:37:00,
2009-02-05 06:41:00,44.8,41.5,29.91,South,184,0.0,11.0,88,0.00,,,0.17,Wunderground v.1.15,2009-02-05 14:41:00,
2009-02-05 06:42:00,44.8,41.5,29.91,SSW,207,2.0,11.0,88,0.00,,,0.17,Wunderground v.1.15,2009-02-05 14:42:00,
2009-02-05 06:46:00,44.8,41.5,29.91,SSW,211,4.0,11.0,88,0.00,,,0.17,Wunderground v.1.15,2009-02-05 14:46:00,
2009-02-05 06:47:00,44.9,41.9,29.91,SSW,213,6.0,11.0,89,0.00,,,0.17,Wunderground v.1.15,2009-02-05 14:47:00,
2009-02-05 06:51:00,45.0,42.0,29.92,SW,227,0.0,7.0,89,0.00,,,0.17,Wunderground v.1.15,2009-02-05 14:51:00,
2009-02-05 06:52:00,45.0,42.0,29.92,SW,227,2.0,7.0,89,0.00,,,0.17,Wunderground v.1.15,2009-02-05 14:52:00,
2009-02-05 06:53:00,45.0,42.0,29.92,SW,229,3.0,7.0,89,0.00,,,0.17,Wunderground v.1.15,2009-02-05 14:53:00,
2009-02-05 06:56:00,45.0,42.0,29.91,West,281,5.0,7.0,89,0.00,,,0.17,Wunderground v.1.15,2009-02-05 14:56:00,
2009-02-05 06:58:00,45.0,42.0,29.91,NNW,345,1.0,7.0,89,0.00,,,0.17,Wunderground v.1.15,2009-02-05 14:58:00,
2009-02-05 07:01:00,45.0,42.0,29.92,SW,232,4.0,6.0,89,0.00,,,0.17,Wunderground v.1.15,2009-02-05 15:01:00,
2009-02-05 07:02:00,45.0,42.0,29.91,SSW,209,6.0,9.0,89,0.00,,,0.17,Wunderground v.1.15,2009-02-05 15:02:00,
2009-02-05 07:03:00,44.9,41.9,29.91,SW,217,3.0,9.0,89,0.00,,,0.17,Wunderground v.1.15,2009-02-05 15:03:00,
2009-02-05 07:04:00,45.0,42.0,29.91,WSW,240,3.0,9.0,89,0.00,,,0.17,Wunderground v.1.15,2009-02-05 15:04:00,
2009-02-05 07:06:00,45.0,42.0,29.91,SSW,209,2.0,9.0,89,0.00,,,0.17,Wunderground v.1.15,2009-02-05 15:06:00,
2009-02-05 07:07:00,44.9,41.9,29.91,SSW,211,1.0,9.0,89,0.00,,,0.17,Wunderground v.1.15,2009-02-05 15:07:00,
2009-02-05 07:09:00,44.9,41.9,29.91,SSW,203,7.0,9.0,89,0.00,,,0.17,Wunderground v.1.15,2009-02-05 15:09:00,
2009-02-05 07:12:00,44.9,42.1,29.91,SSW,202,5.0,10.0,90,0.00,,,0.17,Wunderground v.1.15,2009-02-05 15:12:00,
2009-02-05 07:14:00,44.9,42.1,29.91,West,263,3.0,12.0,90,0.00,,,0.17,Wunderground v.1.15,2009-02-05 15:14:00,
2009-02-05 07:17:00,44.9,42.1,29.91,West,275,6.0,14.0,90,0.00,,,0.17,Wunderground v.1.15,2009-02-05 15:17:00,
2009-02-05 07:18:00,44.9,42.1,29.91,SW,222,10.0,14.0,90,0.00,,,0.17,Wunderground v.1.15,2009-02-05 15:18:00,
2009-02-05 07:19:00,44.9,42.1,29.91,SW,229,3.0,14.0,90,0.00,,,0.17,Wunderground v.1.15,2009-02-05 15:19:00,
2009-02-05 07:22:00,44.9,42.1,29.91,SW,217,4.0,9.0,90,0.00,,,0.17,Wunderground v.1.15,2009-02-05 15:22:00,
2009-02-05 07:23:00,44.9,42.1,29.91,SW,236,2.0,9.0,90,0.00,,,0.17,Wunderground v.1.15,2009-02-05 15:23:00,
2009-02-05 07:24:00,44.8,42.0,29.91,WSW,245,3.0,9.0,90,0.00,,,0.17,Wunderground v.1.15,2009-02-05 15:24:00,
2009-02-05 07:25:00,44.9,42.4,29.92,SSW,213,3.0,9.0,91,0.00,,,0.17,Wunderground v.1.15,2009-02-05 15:25:00,
2009-02-05 07:27:00,44.9,42.4,29.92,SW,229,4.0,9.0,91,0.00,,,0.17,Wunderground v.1.15,2009-02-05 15:27:00,
2009-02-05 07:28:00,44.9,42.4,29.92,SSW,209,6.0,9.0,91,0.00,,,0.17,Wunderground v.1.15,2009-02-05 15:28:00,
2009-02-05 07:29:00,44.9,42.4,29.92,SW,226,10.0,13.0,91,0.00,,,0.17,Wunderground v.1.15,2009-02-05 15:29:00,
2009-02-05 07:31:00,45.0,42.5,29.92,SSW,205,14.0,14.0,91,0.00,,,0.17,Wunderground v.1.15,2009-02-05 15:31:00,
2009-02-05 07:32:00,45.0,42.2,29.92,West,273,5.0,18.0,90,0.00,,,0.17,Wunderground v.1.15,2009-02-05 15:32:00,
2009-02-05 07:33:00,45.0,42.2,29.92,West,263,5.0,18.0,90,0.00,,,0.17,Wunderground v.1.15,2009-02-05 15:33:00,
2009-02-05 07:35:00,45.1,42.3,29.92,SSW,202,5.0,18.0,90,0.00,,,0.17,Wunderground v.1.15,2009-02-05 15:35:00,
2009-02-05 07:36:00,45.1,42.3,29.92,SSW,200,5.0,18.0,90,0.00,,,0.17,Wunderground v.1.15,2009-02-05 15:36:00,
2009-02-05 07:38:00,45.1,42.3,29.92,SSW,205,6.0,18.0,90,0.00,,,0.17,Wunderground v.1.15,2009-02-05 15:38:00,
2009-02-05 07:40:00,45.2,42.4,29.93,South,191,6.0,6.0,90,0.00,,,0.17,Wunderground v.1.15,2009-02-05 15:40:00,
2009-02-05 07:41:00,45.2,42.4,29.93,WSW,248,2.0,8.0,90,0.00,,,0.17,Wunderground v.1.15,2009-02-05 15:41:00,
2009-02-05 07:43:00,45.2,42.4,29.93,SSW,212,8.0,9.0,90,0.00,,,0.17,Wunderground v.1.15,2009-02-05 15:43:00,
2009-02-05 07:44:00,45.2,42.7,29.93,South,176,5.0,9.0,91,0.00,,,0.17,Wunderground v.1.15,2009-02-05 15:44:00,
2009-02-05 07:45:00,45.2,42.7,29.93,WSW,252,5.0,9.0,91,0.00,,,0.17,Wunderground v.1.15,2009-02-05 15:45:00,
2009-02-05 07:46:00,45.2,42.7,29.93,South,188,1.0,9.0,91,0.00,,,0.17,Wunderground v.1.15,2009-02-05 15:46:00,
2009-02-05 07:48:00,45.2,42.7,29.93,SSW,195,4.0,10.0,91,0.00,,,0.17,Wunderground v.1.15,2009-02-05 15:48:00,
2009-02-05 07:49:00,45.3,42.8,29.93,SW,225,5.0,10.0,91,0.00,,,0.17,Wunderground v.1.15,2009-02-05 15:49:00,
2009-02-05 07:50:00,45.4,42.9,29.93,South,191,5.0,9.0,91,0.00,,,0.17,Wunderground v.1.15,2009-02-05 15:50:00,
2009-02-05 07:51:00,45.4,42.9,29.93,SSW,194,7.0,9.0,91,0.00,,,0.17,Wunderground v.1.15,2009-02-05 15:51:00,
2009-02-05 07:53:00,45.5,42.7,29.93,WSW,237,4.0,10.0,90,0.00,,,0.17,Wunderground v.1.15,2009-02-05 15:53:00,
2009-02-05 07:54:00,45.4,42.6,29.93,West,261,1.0,11.0,90,0.00,,,0.17,Wunderground v.1.15,2009-02-05 15:54:00,
2009-02-05 07:56:00,45.5,42.7,29.93,SW,227,6.0,11.0,90,0.00,,,0.17,Wunderground v.1.15,2009-02-05 15:56:00,
2009-02-05 07:59:00,45.6,42.8,29.93,SSW,211,6.0,14.0,90,0.00,,,0.17,Wunderground v.1.15,2009-02-05 15:59:00,
2009-02-05 08:00:00,45.6,42.8,29.93,SW,221,1.0,5.0,90,0.00,,,0.17,Wunderground v.1.15,2009-02-05 16:00:00,
2009-02-05 08:01:00,45.6,42.8,29.93,SSW,207,3.0,6.0,90,0.00,,,0.17,Wunderground v.1.15,2009-02-05 16:01:00,
2009-02-05 08:04:00,45.7,42.9,29.94,SSW,204,7.0,7.0,90,0.00,,,0.17,Wunderground v.1.15,2009-02-05 16:04:00,
2009-02-05 08:05:00,45.7,42.9,29.94,NW,307,4.0,13.0,90,0.00,,,0.17,Wunderground v.1.15,2009-02-05 16:05:00,
2009-02-05 08:06:00,45.7,42.9,29.94,ESE,104,1.0,13.0,90,0.00,,,0.17,Wunderground v.1.15,2009-02-05 16:06:00,
2009-02-05 08:07:00,45.7,42.9,29.94,South,179,1.0,13.0,90,0.00,,,0.17,Wunderground v.1.15,2009-02-05 16:07:00,
2009-02-05 08:10:00,45.7,42.6,29.94,SSW,213,3.0,4.0,89,0.00,,,0.17,Wunderground v.1.15,2009-02-05 16:10:00,
2009-02-05 08:11:00,45.8,42.7,29.94,West,261,7.0,14.0,89,0.00,,,0.17,Wunderground v.1.15,2009-02-05 16:11:00,
2009-02-05 08:12:00,45.8,42.7,29.94,South,186,5.0,14.0,89,0.00,,,0.17,Wunderground v.1.15,2009-02-05 16:12:00,
2009-02-05 08:15:00,45.8,42.7,29.95,SSW,207,1.0,14.0,89,0.00,,,0.17,Wunderground v.1.15,2009-02-05 16:15:00,
2009-02-05 08:16:00,45.8,42.7,29.95,SSW,206,1.0,14.0,89,0.00,,,0.17,Wunderground v.1.15,2009-02-05 16:16:00,
2009-02-05 08:17:00,45.8,42.7,29.94,SSW,192,0.0,14.0,89,0.00,,,0.17,Wunderground v.1.15,2009-02-05 16:17:00,
2009-02-05 08:20:00,45.8,43.0,29.95,SSW,201,6.0,6.0,90,0.00,,,0.17,Wunderground v.1.15,2009-02-05 16:20:00,
2009-02-05 08:21:00,45.8,43.0,29.95,SSE,161,1.0,6.0,90,0.00,,,0.17,Wunderground v.1.15,2009-02-05 16:21:00,
2009-02-05 08:22:00,45.9,42.8,29.95,South,189,2.0,6.0,89,0.00,,,0.17,Wunderground v.1.15,2009-02-05 16:22:00,
2009-02-05 08:23:00,45.9,42.8,29.95,SSW,210,3.0,6.0,89,0.00,,,0.17,Wunderground v.1.15,2009-02-05 16:23:00,
2009-02-05 08:25:00,46.0,42.9,29.95,SSW,213,2.0,6.0,89,0.00,,,0.17,Wunderground v.1.15,2009-02-05 16:25:00,
2009-02-05 08:26:00,46.0,42.9,29.95,SSW,203,5.0,7.0,89,0.00,,,0.17,Wunderground v.1.15,2009-02-05 16:26:00,
2009-02-05 08:27:00,46.0,42.9,29.95,SSW,204,3.0,7.0,89,0.00,,,0.17,Wunderground v.1.15,2009-02-05 16:27:00,
2009-02-05 08:28:00,46.1,43.0,29.95,SW,217,5.0,7.0,89,0.00,,,0.17,Wunderground v.1.15,2009-02-05 16:28:00,
2009-02-05 08:30:00,46.1,43.0,29.95,South,186,2.0,3.0,89,0.00,,,0.17,Wunderground v.1.15,2009-02-05 16:30:00,
2009-02-05 08:31:00,46.1,43.0,29.95,SSW,195,3.0,4.0,89,0.00,,,0.17,Wunderground v.1.15,2009-02-05 16:31:00,
2009-02-05 08:32:00,46.1,43.0,29.95,SW,229,3.0,5.0,89,0.00,,,0.17,Wunderground v.1.15,2009-02-05 16:32:00,
2009-02-05 08:33:00,46.1,43.0,29.95,West,279,3.0,5.0,89,0.00,,,0.17,Wunderground v.1.15,2009-02-05 16:33:00,
2009-02-05 08:35:00,46.1,43.0,29.95,WSW,240,7.0,7.0,89,0.00,,,0.17,Wunderground v.1.15,2009-02-05 16:35:00,
2009-02-05 08:37:00,46.1,42.7,29.95,SSW,201,4.0,7.0,88,0.00,,,0.17,Wunderground v.1.15,2009-02-05 16:37:00,
2009-02-05 08:38:00,46.1,42.7,29.96,SSW,196,4.0,7.0,88,0.00,,,0.17,Wunderground v.1.15,2009-02-05 16:38:00,
2009-02-05 08:40:00,46.1,43.0,29.96,SSW,199,4.0,7.0,89,0.00,,,0.17,Wunderground v.1.15,2009-02-05 16:40:00,
2009-02-05 08:42:00,46.1,43.0,29.96,SSW,213,5.0,8.0,89,0.00,,,0.17,Wunderground v.1.15,2009-02-05 16:42:00,
2009-02-05 08:43:00,46.1,43.0,29.96,SW,217,4.0,8.0,89,0.00,,,0.17,Wunderground v.1.15,2009-02-05 16:43:00,
2009-02-05 08:46:00,46.1,43.0,29.96,South,180,4.0,11.0,89,0.00,,,0.17,Wunderground v.1.15,2009-02-05 16:46:00,
2009-02-05 08:47:00,46.1,43.0,29.96,West,265,3.0,11.0,89,0.00,,,0.17,Wunderground v.1.15,2009-02-05 16:47:00,
2009-02-05 08:48:00,46.1,43.3,29.96,SSW,211,7.0,11.0,90,0.00,,,0.17,Wunderground v.1.15,2009-02-05 16:48:00,
2009-02-05 08:51:00,46.1,43.3,29.96,SW,225,5.0,7.0,90,0.00,,,0.17,Wunderground v.1.15,2009-02-05 16:51:00,
2009-02-05 08:52:00,46.2,43.4,29.95,SW,214,4.0,7.0,90,0.00,,,0.17,Wunderground v.1.15,2009-02-05 16:52:00,
2009-02-05 08:53:00,46.2,43.4,29.95,West,264,3.0,7.0,90,0.00,,,0.17,Wunderground v.1.15,2009-02-05 16:53:00,
2009-02-05 08:56:00,46.2,43.4,29.96,SW,232,6.0,11.0,90,0.00,,,0.17,Wunderground v.1.15,2009-02-05 16:56:00,
2009-02-05 08:57:00,46.3,43.5,29.95,SW,221,3.0,11.0,90,0.00,,,0.17,Wunderground v.1.15,2009-02-05 16:57:00,
2009-02-05 08:58:00,46.3,43.5,29.95,WSW,249,4.0,11.0,90,0.00,,,0.17,Wunderground v.1.15,2009-02-05 16:58:00,
2009-02-05 08:59:00,46.3,43.5,29.96,SSW,204,6.0,11.0,90,0.00,,,0.17,Wunderground v.1.15,2009-02-05 16:59:00,
2009-02-05 09:01:00,46.3,43.5,29.96,SSW,209,10.0,10.0,90,0.00,,,0.17,Wunderground v.1.15,2009-02-05 17:01:00,
2009-02-05 09:02:00,46.3,43.5,29.96,NW,313,10.0,14.0,90,0.00,,,0.17,Wunderground v.1.15,2009-02-05 17:02:00,
2009-02-05 09:03:00,46.3,43.5,29.96,SSW,207,7.0,14.0,90,0.00,,,0.17,Wunderground v.1.15,2009-02-05 17:03:00,
2009-02-05 09:04:00,46.3,43.5,29.96,WSW,246,1.0,14.0,90,0.00,,,0.17,Wunderground v.1.15,2009-02-05 17:04:00,
2009-02-05 09:07:00,46.4,43.6,29.96,South,183,4.0,14.0,90,0.00,,,0.17,Wunderground v.1.15,2009-02-05 17:07:00,
2009-02-05 09:08:00,46.4,43.6,29.97,SW,221,4.0,14.0,90,0.00,,,0.17,Wunderground v.1.15,2009-02-05 17:08:00,
2009-02-05 09:09:00,46.4,43.6,29.97,WSW,256,1.0,14.0,90,0.00,,,0.17,Wunderground v.1.15,2009-02-05 17:09:00,
2009-02-05 09:12:00,46.4,43.6,29.97,SW,215,4.0,6.0,90,0.00,,,0.17,Wunderground v.1.15,2009-02-05 17:12:00,
2009-02-05 09:13:00,46.4,43.6,29.97,SSW,207,6.0,6.0,90,0.00,,,0.17,Wunderground v.1.15,2009-02-05 17:13:00,
2009-02-05 09:14:00,46.4,43.6,29.97,SSW,210,9.0,9.0,90,0.00,,,0.17,Wunderground v.1.15,2009-02-05 17:14:00,
2009-02-05 09:17:00,46.4,43.6,29.96,SW,234,1.0,9.0,90,0.00,,,0.17,Wunderground v.1.15,2009-02-05 17:17:00,
2009-02-05 09:18:00,46.4,43.6,29.96,SW,221,1.0,9.0,90,0.00,,,0.17,Wunderground v.1.15,2009-02-05 17:18:00,
2009-02-05 09:19:00,46.4,43.6,29.97,SW,214,2.0,9.0,90,0.00,,,0.17,Wunderground v.1.15,2009-02-05 17:19:00,
2009-02-05 09:20:00,46.5,43.7,29.96,SW,233,4.0,10.0,90,0.00,,,0.17,Wunderground v.1.15,2009-02-05 17:20:00,
2009-02-05 09:23:00,46.5,43.7,29.97,SSW,211,4.0,10.0,90,0.00,,,0.17,Wunderground v.1.15,2009-02-05 17:23:00,
2009-02-05 09:24:00,46.5,43.7,29.96,SSW,193,4.0,10.0,90,0.00,,,0.17,Wunderground v.1.15,2009-02-05 17:24:00,
2009-02-05 09:25:00,46.5,43.7,29.97,SSW,202,5.0,10.0,90,0.00,,,0.17,Wunderground v.1.15,2009-02-05 17:25:00,
2009-02-05 09:28:00,46.4,43.6,29.96,SSW,207,9.0,10.0,90,0.00,,,0.17,Wunderground v.1.15,2009-02-05 17:28:00,
2009-02-05 09:29:00,46.4,43.6,29.96,SW,215,4.0,13.0,90,0.00,,,0.17,Wunderground v.1.15,2009-02-05 17:29:00,
2009-02-05 09:30:00,46.4,43.9,29.97,SW,223,1.0,5.0,91,0.00,,,0.17,Wunderground v.1.15,2009-02-05 17:30:00,
2009-02-05 09:33:00,46.4,43.9,29.97,SW,217,6.0,6.0,91,0.00,,,0.17,Wunderground v.1.15,2009-02-05 17:33:00,
2009-02-05 09:35:00,46.4,43.9,29.97,SW,230,6.0,9.0,91,0.00,,,0.17,Wunderground v.1.15,2009-02-05 17:35:00,
2009-02-05 09:36:00,46.4,43.9,29.97,SW,226,2.0,10.0,91,0.00,,,0.17,Wunderground v.1.15,2009-02-05 17:36:00,
2009-02-05 09:38:00,46.3,43.8,29.97,SW,232,5.0,10.0,91,0.00,,,0.17,Wunderground v.1.15,2009-02-05 17:38:00,
2009-02-05 09:40:00,46.3,43.8,29.97,SW,214,4.0,4.0,91,0.00,,,0.17,Wunderground v.1.15,2009-02-05 17:40:00,
2009-02-05 09:41:00,46.3,43.8,29.97,SSW,206,2.0,5.0,91,0.00,,,0.17,Wunderground v.1.15,2009-02-05 17:41:00,
2009-02-05 09:43:00,46.3,44.1,29.97,SW,231,3.0,6.0,92,0.00,,,0.17,Wunderground v.1.15,2009-02-05 17:43:00,
2009-02-05 09:45:00,46.2,44.0,29.97,WSW,243,1.0,6.0,92,0.00,,,0.17,Wunderground v.1.15,2009-02-05 17:45:00,
2009-02-05 09:46:00,46.3,44.1,29.97,SW,215,3.0,6.0,92,0.00,,,0.17,Wunderground v.1.15,2009-02-05 17:46:00,
2009-02-05 09:48:00,46.3,44.1,29.97,SSW,213,2.0,7.0,92,0.00,,,0.17,Wunderground v.1.15,2009-02-05 17:48:00,
2009-02-05 09:49:00,46.2,44.0,29.97,SSW,213,2.0,7.0,92,0.00,,,0.17,Wunderground v.1.15,2009-02-05 17:49:00,
2009-02-05 09:50:00,46.2,44.0,29.97,SSW,213,2.0,3.0,92,0.00,,,0.17,Wunderground v.1.15,2009-02-05 17:50:00,
2009-02-05 09:51:00,46.2,44.0,29.97,SSW,213,3.0,4.0,92,0.00,,,0.17,Wunderground v.1.15,2009-02-05 17:51:00,
2009-02-05 09:53:00,46.3,44.1,29.97,SW,223,2.0,5.0,92,0.00,,,0.17,Wunderground v.1.15,2009-02-05 17:53:00,
2009-02-05 09:54:00,46.2,44.0,29.97,WNW,298,2.0,5.0,92,0.00,,,0.17,Wunderground v.1.15,2009-02-05 17:54:00,
2009-02-05 09:55:00,46.2,44.0,29.97,SW,219,3.0,5.0,92,0.00,,,0.17,Wunderground v.1.15,2009-02-05 17:55:00,
2009-02-05 09:56:00,46.2,44.0,29.97,SW,225,5.0,7.0,92,0.00,,,0.17,Wunderground v.1.15,2009-02-05 17:56:00,
2009-02-05 09:58:00,46.3,44.1,29.97,SSW,213,7.0,7.0,92,0.00,,,0.17,Wunderground v.1.15,2009-02-05 17:58:00,
2009-02-05 09:59:00,46.3,44.1,29.97,SW,226,4.0,7.0,92,0.00,,,0.17,Wunderground v.1.15,2009-02-05 17:59:00,
2009-02-05 10:00:00,46.3,44.1,29.97,SSW,205,6.0,6.0,92,0.00,,,0.17,Wunderground v.1.15,2009-02-05 18:00:00,
2009-02-05 10:02:00,46.3,44.1,29.97,South,189,4.0,6.0,92,0.00,,,0.17,Wunderground v.1.15,2009-02-05 18:02:00,
2009-02-05 10:04:00,46.4,44.2,29.97,SSW,202,7.0,7.0,92,0.00,,,0.17,Wunderground v.1.15,2009-02-05 18:04:00,
2009-02-05 10:05:00,46.5,44.3,29.97,SSW,211,2.0,7.0,92,0.00,,,0.17,Wunderground v.1.15,2009-02-05 18:05:00,
2009-02-05 10:07:00,46.6,44.4,29.97,SW,227,3.0,7.0,92,0.00,,,0.17,Wunderground v.1.15,2009-02-05 18:07:00,
2009-02-05 10:09:00,46.8,44.9,29.97,SW,235,3.0,8.0,93,0.00,,,0.17,Wunderground v.1.15,2009-02-05 18:09:00,
2009-02-05 10:10:00,46.9,44.7,29.97,SSW,193,2.0,5.0,92,0.00,,,0.17,Wunderground v.1.15,2009-02-05 18:10:00,
2009-02-05 10:12:00,46.9,44.7,29.97,SW,214,6.0,6.0,92,0.00,,,0.17,Wunderground v.1.15,2009-02-05 18:12:00,
2009-02-05 10:14:00,46.9,44.7,29.98,SW,233,1.0,7.0,92,0.00,,,0.17,Wunderground v.1.15,2009-02-05 18:14:00,
2009-02-05 10:16:00,47.0,44.8,29.98,West,271,4.0,7.0,92,0.00,,,0.17,Wunderground v.1.15,2009-02-05 18:16:00,
2009-02-05 10:17:00,47.0,44.8,29.98,SW,220,5.0,7.0,92,0.00,,,0.17,Wunderground v.1.15,2009-02-05 18:17:00,
2009-02-05 10:19:00,47.0,44.5,29.98,SW,223,4.0,7.0,91,0.00,,,0.17,Wunderground v.1.15,2009-02-05 18:19:00,
2009-02-05 10:20:00,47.0,44.8,29.98,SSW,213,5.0,5.0,92,0.00,,,0.17,Wunderground v.1.15,2009-02-05 18:20:00,
2009-02-05 10:21:00,47.0,44.8,29.98,SW,222,6.0,7.0,92,0.00,,,0.17,Wunderground v.1.15,2009-02-05 18:21:00,
2009-02-05 10:23:00,46.9,44.4,29.98,SW,226,5.0,7.0,91,0.00,,,0.17,Wunderground v.1.15,2009-02-05 18:23:00,
2009-02-05 10:24:00,46.8,44.6,29.99,SW,232,6.0,7.0,92,0.00,,,0.17,Wunderground v.1.15,2009-02-05 18:24:00,
2009-02-05 10:25:00,46.8,44.3,29.99,SW,225,4.0,7.0,91,0.00,,,0.17,Wunderground v.1.15,2009-02-05 18:25:00,
2009-02-05 10:26:00,46.7,44.2,29.99,West,281,3.0,7.0,91,0.00,,,0.17,Wunderground v.1.15,2009-02-05 18:26:00,
2009-02-05 10:28:00,46.8,44.6,29.99,SW,217,3.0,7.0,92,0.00,,,0.17,Wunderground v.1.15,2009-02-05 18:28:00,
2009-02-05 10:29:00,46.9,44.7,29.99,West,263,1.0,10.0,92,0.00,,,0.17,Wunderground v.1.15,2009-02-05 18:29:00,
2009-02-05 10:30:00,47.0,44.8,29.99,SSW,209,4.0,4.0,92,0.00,,,0.17,Wunderground v.1.15,2009-02-05 18:30:00,
2009-02-05 10:31:00,47.0,44.8,29.99,South,175,2.0,10.0,92,0.00,,,0.17,Wunderground v.1.15,2009-02-05 18:31:00,
2009-02-05 10:33:00,47.0,44.8,29.99,WSW,249,1.0,10.0,92,0.00,,,0.17,Wunderground v.1.15,2009-02-05 18:33:00,
2009-02-05 10:34:00,47.0,44.5,29.99,SW,217,0.0,10.0,91,0.00,,,0.17,Wunderground v.1.15,2009-02-05 18:34:00,
2009-02-05 10:35:00,47.0,44.5,29.99,SW,218,3.0,10.0,91,0.00,,,0.17,Wunderground v.1.15,2009-02-05 18:35:00,
2009-02-05 10:37:00,47.0,44.8,29.99,SW,216,6.0,11.0,92,0.00,,,0.17,Wunderground v.1.15,2009-02-05 18:37:00,
2009-02-05 10:38:00,46.9,44.4,29.99,SW,233,4.0,11.0,91,0.00,,,0.17,Wunderground v.1.15,2009-02-05 18:38:00,
2009-02-05 10:40:00,46.9,44.4,29.99,WNW,286,4.0,7.0,91,0.00,,,0.17,Wunderground v.1.15,2009-02-05 18:40:00,
2009-02-05 10:43:00,46.8,44.6,29.99,SW,217,6.0,10.0,92,0.00,,,0.17,Wunderground v.1.15,2009-02-05 18:43:00,
2009-02-05 10:46:00,46.9,44.7,29.98,WNW,296,4.0,10.0,92,0.00,,,0.17,Wunderground v.1.15,2009-02-05 18:46:00,
2009-02-05 10:48:00,46.9,44.7,29.98,SW,225,8.0,10.0,92,0.00,,,0.17,Wunderground v.1.15,2009-02-05 18:48:00,
2009-02-05 10:51:00,46.9,44.7,29.98,SW,217,7.0,10.0,92,0.00,,,0.17,Wunderground v.1.15,2009-02-05 18:51:00,
2009-02-05 10:53:00,46.8,44.6,29.98,WSW,246,4.0,10.0,92,0.00,,,0.17,Wunderground v.1.15,2009-02-05 18:53:00,
2009-02-05 10:56:00,46.9,44.7,29.98,SSW,197,5.0,10.0,92,0.00,,,0.17,Wunderground v.1.15,2009-02-05 18:56:00,
2009-02-05 10:58:00,46.8,44.6,29.99,SSW,209,6.0,10.0,92,0.00,,,0.17,Wunderground v.1.15,2009-02-05 18:58:00,
2009-02-05 11:01:00,46.9,44.7,29.98,SSW,203,9.0,10.0,92,0.00,,,0.17,Wunderground v.1.15,2009-02-05 19:01:00,
2009-02-05 11:03:00,47.0,44.8,29.98,SW,225,4.0,10.0,92,0.00,,,0.17,Wunderground v.1.15,2009-02-05 19:03:00,
2009-02-05 11:04:00,47.0,44.8,29.98,SW,225,3.0,10.0,92,0.00,,,0.17,Wunderground v.1.15,2009-02-05 19:04:00,
2009-02-05 11:06:00,47.1,44.9,29.98,SSW,213,6.0,10.0,92,0.00,,,0.17,Wunderground v.1.15,2009-02-05 19:06:00,
2009-02-05 11:09:00,47.2,45.0,29.98,SSW,207,4.0,10.0,92,0.00,,,0.17,Wunderground v.1.15,2009-02-05 19:09:00,
2009-02-05 11:11:00,47.2,45.0,29.98,SW,232,4.0,10.0,92,0.00,,,0.17,Wunderground v.1.15,2009-02-05 19:11:00,
2009-02-05 11:14:00,47.2,45.0,29.98,SW,222,6.0,12.0,92,0.00,,,0.17,Wunderground v.1.15,2009-02-05 19:14:00,
2009-02-05 11:15:00,47.2,45.0,29.98,SSW,200,6.0,12.0,92,0.00,,,0.17,Wunderground v.1.15,2009-02-05 19:15:00,
2009-02-05 11:16:00,47.0,44.8,29.98,SSW,210,7.0,12.0,92,0.00,,,0.17,Wunderground v.1.15,2009-02-05 19:16:00,
2009-02-05 11:17:00,47.0,44.8,29.98,SSW,209,9.0,12.0,92,0.00,,,0.17,Wunderground v.1.15,2009-02-05 19:17:00,
2009-02-05 11:19:00,46.9,45.0,29.98,SW,220,2.0,12.0,93,0.00,,,0.17,Wunderground v.1.15,2009-02-05 19:19:00,
2009-02-05 11:20:00,46.9,45.0,29.98,South,169,3.0,5.0,93,0.00,,,0.17,Wunderground v.1.15,2009-02-05 19:20:00,
2009-02-05 11:21:00,46.8,44.9,29.98,SW,220,6.0,9.0,93,0.00,,,0.17,Wunderground v.1.15,2009-02-05 19:21:00,
2009-02-05 11:22:00,46.8,44.9,29.98,SSW,213,12.0,12.0,93,0.00,,,0.17,Wunderground v.1.15,2009-02-05 19:22:00,
2009-02-05 11:24:00,46.8,44.9,29.98,SW,223,2.0,13.0,93,0.00,,,0.17,Wunderground v.1.15,2009-02-05 19:24:00,
2009-02-05 11:25:00,46.8,44.9,29.98,WSW,240,4.0,13.0,93,0.00,,,0.17,Wunderground v.1.15,2009-02-05 19:25:00,
2009-02-05 11:27:00,47.1,45.5,29.98,SW,222,0.0,13.0,94,0.00,,,0.17,Wunderground v.1.15,2009-02-05 19:27:00,
2009-02-05 11:29:00,47.3,45.7,29.98,SW,220,3.0,13.0,94,0.00,,,0.17,Wunderground v.1.15,2009-02-05 19:29:00,
2009-02-05 11:30:00,47.4,45.8,29.98,SW,220,3.0,4.0,94,0.00,,,0.17,Wunderground v.1.15,2009-02-05 19:30:00,
2009-02-05 11:32:00,47.6,46.0,29.98,SW,225,7.0,8.0,94,0.00,,,0.17,Wunderground v.1.15,2009-02-05 19:32:00,
2009-02-05 11:35:00,47.6,45.7,29.97,SW,232,6.0,8.0,93,0.00,,,0.17,Wunderground v.1.15,2009-02-05 19:35:00,
2009-02-05 11:37:00,47.6,45.7,29.98,SW,223,5.0,8.0,93,0.00,,,0.17,Wunderground v.1.15,2009-02-05 19:37:00,
2009-02-05 11:40:00,47.7,45.8,29.98,SSW,202,0.0,4.0,93,0.00,,,0.17,Wunderground v.1.15,2009-02-05 19:40:00,
2009-02-05 11:42:00,47.6,45.7,29.98,SW,215,4.0,4.0,93,0.00,,,0.18,Wunderground v.1.15,2009-02-05 19:42:00,
2009-02-05 11:45:00,47.4,45.5,29.97,SW,222,5.0,6.0,93,0.23,,,0.19,Wunderground v.1.15,2009-02-05 19:45:00,
2009-02-05 11:47:00,47.4,45.8,29.97,West,276,2.0,7.0,94,0.14,,,0.19,Wunderground v.1.15,2009-02-05 19:47:00,
2009-02-05 11:50:00,47.3,45.7,29.97,West,271,2.0,2.0,94,0.12,,,0.20,Wunderground v.1.15,2009-02-05 19:50:00,
2009-02-05 11:53:00,47.2,45.6,29.97,SSW,207,0.0,7.0,94,0.12,,,0.20,Wunderground v.1.15,2009-02-05 19:53:00,
2009-02-05 11:55:00,47.0,45.4,29.97,SW,214,1.0,7.0,94,0.10,,,0.21,Wunderground v.1.15,2009-02-05 19:55:00,
2009-02-05 11:56:00,47.0,45.4,29.97,SSW,209,3.0,7.0,94,0.44,,,0.21,Wunderground v.1.15,2009-02-05 19:56:00,
2009-02-05 11:58:00,46.8,45.2,29.97,SW,225,2.0,7.0,94,0.27,,,0.22,Wunderground v.1.15,2009-02-05 19:58:00,
2009-02-05 12:00:00,47.0,45.6,29.96,SW,223,0.0,3.0,95,0.12,,,0.22,Wunderground v.1.15,2009-02-05 20:00:00,
2009-02-05 12:01:00,47.0,45.6,29.96,SW,223,0.0,3.0,95,0.12,,,0.22,Wunderground v.1.15,2009-02-05 20:01:00,
2009-02-05 12:03:00,47.0,45.6,29.96,SW,223,4.0,4.0,95,0.08,,,0.22,Wunderground v.1.15,2009-02-05 20:03:00,
2009-02-05 12:05:00,46.9,45.3,29.96,SW,220,1.0,4.0,94,0.33,,,0.24,Wunderground v.1.15,2009-02-05 20:05:00,
2009-02-05 12:06:00,46.9,45.3,29.96,SW,220,3.0,4.0,94,0.33,,,0.24,Wunderground v.1.15,2009-02-05 20:06:00,
2009-02-05 12:08:00,46.9,45.5,29.95,SW,221,0.0,4.0,95,0.22,,,0.24,Wunderground v.1.15,2009-02-05 20:08:00,
2009-02-05 12:09:00,47.0,45.6,29.95,SW,221,1.0,4.0,95,0.20,,,0.25,Wunderground v.1.15,2009-02-05 20:09:00,
2009-02-05 12:12:00,47.2,45.8,29.95,SSE,160,2.0,5.0,95,0.18,,,0.25,Wunderground v.1.15,2009-02-05 20:12:00,
2009-02-05 12:13:00,47.3,45.9,29.95,SSW,200,2.0,5.0,95,0.18,,,0.26,Wunderground v.1.15,2009-02-05 20:13:00,
2009-02-05 12:14:00,47.3,45.9,29.95,SW,214,0.0,5.0,95,0.18,,,0.26,Wunderground v.1.15,2009-02-05 20:14:00,
2009-02-05 12:16:00,47.5,46.1,29.95,SW,214,1.0,5.0,95,0.12,,,0.26,Wunderground v.1.15,2009-02-05 20:16:00,
2009-02-05 12:17:00,47.5,46.1,29.95,SW,214,0.0,5.0,95,0.12,,,0.26,Wunderground v.1.15,2009-02-05 20:17:00,
2009-02-05 12:18:00,47.5,46.1,29.96,South,191,4.0,5.0,95,0.09,,,0.26,Wunderground v.1.15,2009-02-05 20:18:00,
2009-02-05 12:19:00,47.4,46.0,29.96,South,187,3.0,6.0,95,0.08,,,0.26,Wunderground v.1.15,2009-02-05 20:19:00,
2009-02-05 12:22:00,47.5,46.1,29.95,SW,214,0.0,7.0,95,0.06,,,0.26,Wunderground v.1.15,2009-02-05 20:22:00,
2009-02-05 12:23:00,47.4,46.0,29.94,WSW,244,2.0,7.0,95,0.05,,,0.26,Wunderground v.1.15,2009-02-05 20:23:00,
2009-02-05 12:24:00,47.4,46.0,29.95,WSW,244,2.0,7.0,95,0.05,,,0.26,Wunderground v.1.15,2009-02-05 20:24:00,
2009-02-05 12:27:00,47.4,46.0,29.95,SSW,198,0.0,7.0,95,0.04,,,0.26,Wunderground v.1.15,2009-02-05 20:27:00,
2009-02-05 12:28:00,47.4,46.0,29.95,South,191,3.0,7.0,95,0.04,,,0.26,Wunderground v.1.15,2009-02-05 20:28:00,
2009-02-05 12:29:00,47.4,46.0,29.95,SSW,209,3.0,7.0,95,0.00,,,0.26,Wunderground v.1.15,2009-02-05 20:29:00,
2009-02-05 12:30:00,47.4,46.0,29.95,WSW,249,1.0,2.0,95,0.00,,,0.26,Wunderground v.1.15,2009-02-05 20:30:00,
2009-02-05 12:33:00,47.4,46.0,29.95,NW,304,4.0,11.0,95,0.00,,,0.26,Wunderground v.1.15,2009-02-05 20:33:00,
2009-02-05 12:34:00,47.6,46.2,29.95,SW,222,1.0,11.0,95,0.00,,,0.26,Wunderground v.1.15,2009-02-05 20:34:00,
2009-02-05 12:35:00,47.6,46.2,29.95,WSW,242,4.0,11.0,95,0.00,,,0.26,Wunderground v.1.15,2009-02-05 20:35:00,
2009-02-05 12:38:00,47.7,46.3,29.95,SW,230,6.0,11.0,95,0.00,,,0.26,Wunderground v.1.15,2009-02-05 20:38:00,
2009-02-05 12:39:00,47.7,46.3,29.95,SW,226,2.0,11.0,95,0.00,,,0.26,Wunderground v.1.15,2009-02-05 20:39:00,
2009-02-05 12:40:00,47.7,46.3,29.95,SSW,208,8.0,8.0,95,0.00,,,0.26,Wunderground v.1.15,2009-02-05 20:40:00,
2009-02-05 12:43:00,47.4,45.8,29.94,SW,223,4.0,11.0,94,0.00,,,0.26,Wunderground v.1.15,2009-02-05 20:43:00,
2009-02-05 12:45:00,47.4,45.8,29.94,SW,217,4.0,11.0,94,0.00,,,0.26,Wunderground v.1.15,2009-02-05 20:45:00,
2009-02-05 12:48:00,47.2,45.6,29.94,WSW,238,3.0,13.0,94,0.00,,,0.26,Wunderground v.1.15,2009-02-05 20:48:00,
2009-02-05 12:50:00,47.3,45.7,29.94,SSW,213,8.0,8.0,94,0.00,,,0.26,Wunderground v.1.15,2009-02-05 20:50:00,
2009-02-05 12:54:00,47.2,45.6,29.94,WSW,244,2.0,10.0,94,0.00,,,0.26,Wunderground v.1.15,2009-02-05 20:54:00,
2009-02-05 12:55:00,47.3,45.7,29.94,SSW,200,9.0,10.0,94,0.00,,,0.26,Wunderground v.1.15,2009-02-05 20:55:00,
2009-02-05 12:59:00,47.3,45.7,29.94,SW,227,2.0,10.0,94,0.00,,,0.26,Wunderground v.1.15,2009-02-05 20:59:00,
2009-02-05 13:00:00,47.3,45.7,29.94,SW,217,10.0,14.0,94,0.00,,,0.26,Wunderground v.1.15,2009-02-05 21:00:00,
2009-02-05 13:01:00,47.2,45.6,29.94,SW,217,5.0,14.0,94,0.00,,,0.26,Wunderground v.1.15,2009-02-05 21:01:00,
2009-02-05 13:04:00,47.3,45.7,29.93,SSW,202,1.0,14.0,94,0.00,,,0.26,Wunderground v.1.15,2009-02-05 21:04:00,
2009-02-05 13:05:00,47.2,45.6,29.93,SW,215,0.0,14.0,94,0.00,,,0.26,Wunderground v.1.15,2009-02-05 21:05:00,
2009-02-05 13:06:00,47.2,45.6,29.93,SW,215,4.0,14.0,94,0.00,,,0.26,Wunderground v.1.15,2009-02-05 21:06:00,
2009-02-05 13:09:00,47.2,45.6,29.93,SW,221,5.0,14.0,94,0.00,,,0.26,Wunderground v.1.15,2009-02-05 21:09:00,
2009-02-05 13:10:00,47.2,45.6,29.93,SW,221,3.0,7.0,94,0.00,,,0.26,Wunderground v.1.15,2009-02-05 21:10:00,
2009-02-05 13:11:00,47.1,45.5,29.93,SW,221,4.0,7.0,94,0.00,,,0.26,Wunderground v.1.15,2009-02-05 21:11:00,
2009-02-05 13:12:00,47.1,45.5,29.93,SW,236,2.0,7.0,94,0.00,,,0.26,Wunderground v.1.15,2009-02-05 21:12:00,
2009-02-05 13:14:00,47.2,45.6,29.93,SSW,210,4.0,7.0,94,0.00,,,0.26,Wunderground v.1.15,2009-02-05 21:14:00,
2009-02-05 13:15:00,47.3,45.9,29.93,SW,228,4.0,7.0,95,0.00,,,0.26,Wunderground v.1.15,2009-02-05 21:15:00,
2009-02-05 13:16:00,47.3,45.9,29.93,SW,232,3.0,7.0,95,0.00,,,0.26,Wunderground v.1.15,2009-02-05 21:16:00,
2009-02-05 13:17:00,47.3,45.7,29.93,SW,217,5.0,7.0,94,0.00,,,0.26,Wunderground v.1.15,2009-02-05 21:17:00,
2009-02-05 13:19:00,47.4,45.8,29.92,SW,217,2.0,7.0,94,0.00,,,0.26,Wunderground v.1.15,2009-02-05 21:19:00,
2009-02-05 13:21:00,47.4,45.8,29.92,SW,225,4.0,7.0,94,0.00,,,0.26,Wunderground v.1.15,2009-02-05 21:21:00,
2009-02-05 13:22:00,47.4,45.8,29.92,SW,224,3.0,7.0,94,0.00,,,0.26,Wunderground v.1.15,2009-02-05 21:22:00,
2009-02-05 13:24:00,47.3,45.7,29.92,SW,225,2.0,7.0,94,0.00,,,0.26,Wunderground v.1.15,2009-02-05 21:24:00,
2009-02-05 13:26:00,47.4,45.8,29.92,SW,228,3.0,7.0,94,0.00,,,0.26,Wunderground v.1.15,2009-02-05 21:26:00,
2009-02-05 13:27:00,47.4,45.8,29.92,SW,221,7.0,7.0,94,0.00,,,0.26,Wunderground v.1.15,2009-02-05 21:27:00,
2009-02-05 13:28:00,47.4,45.8,29.92,SW,225,5.0,7.0,94,0.00,,,0.26,Wunderground v.1.15,2009-02-05 21:28:00,
2009-02-05 13:30:00,47.4,45.8,29.92,SSW,209,3.0,3.0,94,0.00,,,0.26,Wunderground v.1.15,2009-02-05 21:30:00,
2009-02-05 13:32:00,47.4,45.8,29.92,SW,223,3.0,5.0,94,0.00,,,0.26,Wunderground v.1.15,2009-02-05 21:32:00,
2009-02-05 13:33:00,47.4,45.8,29.92,SW,219,1.0,5.0,94,0.00,,,0.26,Wunderground v.1.15,2009-02-05 21:33:00,
2009-02-05 13:35:00,47.4,45.8,29.92,SW,225,3.0,10.0,94,0.00,,,0.26,Wunderground v.1.15,2009-02-05 21:35:00,
2009-02-05 13:37:00,47.6,45.7,29.92,SW,223,3.0,10.0,93,0.00,,,0.26,Wunderground v.1.15,2009-02-05 21:37:00,
2009-02-05 13:38:00,47.7,46.1,29.92,SSW,213,6.0,10.0,94,0.00,,,0.26,Wunderground v.1.15,2009-02-05 21:38:00,
2009-02-05 13:40:00,47.7,45.8,29.92,WSW,241,5.0,5.0,93,0.00,,,0.26,Wunderground v.1.15,2009-02-05 21:40:00,
2009-02-05 13:42:00,47.7,45.8,29.92,SW,217,5.0,6.0,93,0.00,,,0.26,Wunderground v.1.15,2009-02-05 21:42:00,
2009-02-05 13:43:00,47.6,45.4,29.92,NW,309,0.0,7.0,92,0.00,,,0.26,Wunderground v.1.15,2009-02-05 21:43:00,
2009-02-05 13:45:00,47.6,45.7,29.92,SW,216,5.0,7.0,93,0.00,,,0.26,Wunderground v.1.15,2009-02-05 21:45:00,
2009-02-05 13:47:00,47.7,45.8,29.92,SW,221,3.0,7.0,93,0.00,,,0.26,Wunderground v.1.15,2009-02-05 21:47:00,
2009-02-05 13:48:00,47.7,45.8,29.92,SW,221,3.0,7.0,93,0.00,,,0.26,Wunderground v.1.15,2009-02-05 21:48:00,
2009-02-05 13:50:00,47.7,45.8,29.92,SW,214,3.0,4.0,93,0.00,,,0.26,Wunderground v.1.15,2009-02-05 21:50:00,
2009-02-05 13:52:00,47.8,45.9,29.92,SE,136,3.0,4.0,93,0.00,,,0.26,Wunderground v.1.15,2009-02-05 21:52:00,
2009-02-05 13:53:00,47.9,46.0,29.92,SE,135,1.0,4.0,93,0.00,,,0.26,Wunderground v.1.15,2009-02-05 21:53:00,
2009-02-05 13:56:00,47.9,46.0,29.92,WSW,246,2.0,6.0,93,0.00,,,0.26,Wunderground v.1.15,2009-02-05 21:56:00,
2009-02-05 13:58:00,47.9,46.0,29.92,WSW,254,1.0,9.0,93,0.00,,,0.26,Wunderground v.1.15,2009-02-05 21:58:00,
2009-02-05 14:01:00,47.7,45.5,29.92,SW,214,0.0,4.0,92,0.00,,,0.26,Wunderground v.1.15,2009-02-05 22:01:00,
2009-02-05 14:03:00,47.7,45.5,29.92,SSW,200,6.0,6.0,92,0.00,,,0.26,Wunderground v.1.15,2009-02-05 22:03:00,
2009-02-05 14:04:00,47.7,45.5,29.92,SSW,207,0.0,6.0,92,0.00,,,0.26,Wunderground v.1.15,2009-02-05 22:04:00,
2009-02-05 14:06:00,47.7,45.5,29.92,South,190,1.0,6.0,92,0.00,,,0.26,Wunderground v.1.15,2009-02-05 22:06:00,
2009-02-05 14:08:00,47.7,45.5,29.92,SW,222,5.0,7.0,92,0.00,,,0.26,Wunderground v.1.15,2009-02-05 22:08:00,
2009-02-05 14:09:00,47.7,45.5,29.92,SSW,203,5.0,7.0,92,0.00,,,0.26,Wunderground v.1.15,2009-02-05 22:09:00,
2009-02-05 14:11:00,47.8,45.9,29.92,West,267,0.0,3.0,93,0.00,,,0.26,Wunderground v.1.15,2009-02-05 22:11:00,
2009-02-05 14:13:00,47.9,46.0,29.92,SW,223,3.0,4.0,93,0.00,,,0.26,Wunderground v.1.15,2009-02-05 22:13:00,
2009-02-05 14:14:00,47.9,46.0,29.92,SW,223,2.0,4.0,93,0.00,,,0.26,Wunderground v.1.15,2009-02-05 22:14:00,
2009-02-05 14:16:00,48.0,46.1,29.92,WSW,239,0.0,6.0,93,0.00,,,0.26,Wunderground v.1.15,2009-02-05 22:16:00,
2009-02-05 14:19:00,48.1,46.2,29.92,WSW,246,3.0,6.0,93,0.00,,,0.26,Wunderground v.1.15,2009-02-05 22:19:00,
2009-02-05 14:21:00,48.1,46.2,29.92,SW,215,1.0,6.0,93,0.00,,,0.26,Wunderground v.1.15,2009-02-05 22:21:00,
2009-02-05 14:24:00,48.1,46.2,29.92,SSW,209,8.0,8.0,93,0.00,,,0.26,Wunderground v.1.15,2009-02-05 22:24:00,
2009-02-05 14:26:00,48.1,46.2,29.92,WSW,242,0.0,8.0,93,0.00,,,0.26,Wunderground v.1.15,2009-02-05 22:26:00,
2009-02-05 14:29:00,48.0,46.1,29.92,SW,229,6.0,8.0,93,0.00,,,0.26,Wunderground v.1.15,2009-02-05 22:29:00,
2009-02-05 14:30:00,48.0,45.8,29.92,SW,229,1.0,3.0,92,0.00,,,0.26,Wunderground v.1.15,2009-02-05 22:30:00,
2009-02-05 14:31:00,48.1,46.2,29.93,SSW,194,3.0,4.0,93,0.00,,,0.26,Wunderground v.1.15,2009-02-05 22:31:00,
2009-02-05 14:34:00,47.9,45.4,29.92,SW,220,4.0,10.0,91,0.00,,,0.26,Wunderground v.1.15,2009-02-05 22:34:00,
2009-02-05 14:35:00,47.8,45.3,29.92,SSW,206,8.0,10.0,91,0.00,,,0.26,Wunderground v.1.15,2009-02-05 22:35:00,
2009-02-05 14:36:00,47.8,45.3,29.92,NW,312,2.0,10.0,91,0.00,,,0.26,Wunderground v.1.15,2009-02-05 22:36:00,
2009-02-05 14:39:00,47.9,45.7,29.92,SW,233,3.0,10.0,92,0.00,,,0.26,Wunderground v.1.15,2009-02-05 22:39:00,
2009-02-05 14:40:00,47.9,45.7,29.92,West,281,5.0,5.0,92,0.00,,,0.26,Wunderground v.1.15,2009-02-05 22:40:00,
2009-02-05 14:42:00,48.1,45.9,29.92,WSW,252,2.0,5.0,92,0.00,,,0.26,Wunderground v.1.15,2009-02-05 22:42:00,
2009-02-05 14:45:00,48.1,45.9,29.92,SW,218,3.0,9.0,92,0.00,,,0.26,Wunderground v.1.15,2009-02-05 22:45:00,
2009-02-05 14:46:00,48.1,45.9,29.92,WSW,254,2.0,9.0,92,0.00,,,0.26,Wunderground v.1.15,2009-02-05 22:46:00,
2009-02-05 14:47:00,48.0,45.8,29.93,SW,214,6.0,9.0,92,0.00,,,0.26,Wunderground v.1.15,2009-02-05 22:47:00,
2009-02-05 14:50:00,48.0,45.8,29.93,SW,214,0.0,3.0,92,0.00,,,0.26,Wunderground v.1.15,2009-02-05 22:50:00,
2009-02-05 14:51:00,48.0,46.1,29.92,West,277,2.0,4.0,93,0.00,,,0.26,Wunderground v.1.15,2009-02-05 22:51:00,
2009-02-05 14:52:00,48.0,46.1,29.92,WNW,282,4.0,4.0,93,0.00,,,0.26,Wunderground v.1.15,2009-02-05 22:52:00,
2009-02-05 14:55:00,48.0,45.8,29.92,SW,215,3.0,5.0,92,0.00,,,0.26,Wunderground v.1.15,2009-02-05 22:55:00,
2009-02-05 14:56:00,48.1,45.9,29.92,SW,227,6.0,6.0,92,0.00,,,0.26,Wunderground v.1.15,2009-02-05 22:56:00,
2009-02-05 14:57:00,48.1,45.9,29.92,WNW,286,4.0,11.0,92,0.00,,,0.26,Wunderground v.1.15,2009-02-05 22:57:00,
2009-02-05 15:00:00,48.2,46.0,29.92,WNW,296,3.0,10.0,92,0.00,,,0.26,Wunderground v.1.15,2009-02-05 23:00:00,
2009-02-05 15:01:00,48.3,45.8,29.92,WNW,284,6.0,10.0,91,0.00,,,0.26,Wunderground v.1.15,2009-02-05 23:01:00,
2009-02-05 15:03:00,48.4,46.2,29.92,WNW,290,3.0,10.0,92,0.00,,,0.26,Wunderground v.1.15,2009-02-05 23:03:00,
2009-02-05 15:06:00,48.6,46.1,29.92,SSW,208,5.0,10.0,91,0.00,,,0.26,Wunderground v.1.15,2009-02-05 23:06:00,
2009-02-05 15:08:00,48.7,45.9,29.92,NW,317,4.0,12.0,90,0.00,,,0.26,Wunderground v.1.15,2009-02-05 23:08:00,
2009-02-05 15:11:00,49.2,46.1,29.92,West,277,2.0,6.0,89,0.00,,,0.26,Wunderground v.1.15,2009-02-05 23:11:00,
2009-02-05 15:14:00,49.3,46.2,29.92,WNW,289,7.0,7.0,89,0.00,,,0.26,Wunderground v.1.15,2009-02-05 23:14:00,
2009-02-05 15:16:00,49.6,46.2,29.92,West,269,1.0,10.0,88,0.00,,,0.26,Wunderground v.1.15,2009-02-05 23:16:00,
2009-02-05 15:19:00,49.5,45.8,29.92,West,269,3.0,10.0,87,0.00,,,0.26,Wunderground v.1.15,2009-02-05 23:19:00,
2009-02-05 15:21:00,49.4,46.0,29.92,SW,227,5.0,7.0,88,0.00,,,0.26,Wunderground v.1.15,2009-02-05 23:21:00,
2009-02-05 15:22:00,49.3,45.9,29.92,WSW,248,3.0,7.0,88,0.00,,,0.26,Wunderground v.1.15,2009-02-05 23:22:00,
2009-02-05 15:24:00,49.4,46.0,29.92,NW,321,7.0,11.0,88,0.00,,,0.26,Wunderground v.1.15,2009-02-05 23:24:00,
2009-02-05 15:26:00,49.3,45.6,29.92,WNW,283,5.0,11.0,87,0.00,,,0.26,Wunderground v.1.15,2009-02-05 23:26:00,
2009-02-05 15:27:00,49.2,45.2,29.92,WSW,237,3.0,11.0,86,0.00,,,0.26,Wunderground v.1.15,2009-02-05 23:27:00,
2009-02-05 15:29:00,49.0,45.3,29.92,West,268,2.0,11.0,87,0.00,,,0.26,Wunderground v.1.15,2009-02-05 23:29:00,
2009-02-05 15:31:00,48.9,45.5,29.92,WSW,239,4.0,7.0,88,0.00,,,0.26,Wunderground v.1.15,2009-02-05 23:31:00,
2009-02-05 15:33:00,48.8,45.4,29.92,SW,233,3.0,7.0,88,0.00,,,0.26,Wunderground v.1.15,2009-02-05 23:33:00,
2009-02-05 15:34:00,48.7,45.3,29.92,SW,221,3.0,7.0,88,0.00,,,0.26,Wunderground v.1.15,2009-02-05 23:34:00,
2009-02-05 15:37:00,48.5,45.1,29.92,SW,235,1.0,13.0,88,0.00,,,0.26,Wunderground v.1.15,2009-02-05 23:37:00,
2009-02-05 15:38:00,48.5,45.1,29.92,NW,322,6.0,13.0,88,0.00,,,0.26,Wunderground v.1.15,2009-02-05 23:38:00,
2009-02-05 15:40:00,48.4,45.0,29.92,WNW,295,5.0,5.0,88,0.00,,,0.26,Wunderground v.1.15,2009-02-05 23:40:00,
2009-02-05 15:42:00,48.3,44.9,29.92,WSW,254,1.0,12.0,88,0.00,,,0.26,Wunderground v.1.15,2009-02-05 23:42:00,
2009-02-05 15:43:00,48.3,44.9,29.92,SW,235,5.0,12.0,88,0.00,,,0.26,Wunderground v.1.15,2009-02-05 23:43:00,
2009-02-05 15:45:00,48.3,44.9,29.92,West,280,6.0,12.0,88,0.00,,,0.26,Wunderground v.1.15,2009-02-05 23:45:00,
2009-02-05 15:47:00,48.3,45.2,29.92,NW,315,4.0,12.0,89,0.00,,,0.26,Wunderground v.1.15,2009-02-05 23:47:00,
2009-02-05 15:48:00,48.4,45.3,29.92,WSW,256,3.0,12.0,89,0.00,,,0.26,Wunderground v.1.15,2009-02-05 23:48:00,
2009-02-05 15:51:00,48.5,45.1,29.92,WNW,290,9.0,12.0,88,0.00,,,0.26,Wunderground v.1.15,2009-02-05 23:51:00,
2009-02-05 15:52:00,48.5,45.1,29.92,SW,230,4.0,12.0,88,0.00,,,0.26,Wunderground v.1.15,2009-02-05 23:52:00,
2009-02-05 15:53:00,48.5,45.1,29.92,WSW,254,10.0,12.0,88,0.00,,,0.26,Wunderground v.1.15,2009-02-05 23:53:00,
2009-02-05 15:56:00,48.4,45.3,29.92,West,269,3.0,12.0,89,0.00,,,0.26,Wunderground v.1.15,2009-02-05 23:56:00,
2009-02-05 15:57:00,48.3,45.2,29.92,WSW,256,6.0,12.0,89,0.00,,,0.26,Wunderground v.1.15,2009-02-05 23:57:00,
2009-02-05 15:58:00,48.3,45.2,29.92,SW,228,2.0,12.0,89,0.00,,,0.26,Wunderground v.1.15,2009-02-05 23:58:00,
2009-02-05 16:01:00,48.1,45.0,29.92,WSW,258,3.0,5.0,89,0.00,,,0.26,Wunderground v.1.15,2009-02-06 00:01:00,
2009-02-05 16:03:00,48.1,45.3,29.92,WSW,253,2.0,16.0,90,0.00,,,0.26,Wunderground v.1.15,2009-02-06 00:03:00,
2009-02-05 16:04:00,48.1,45.3,29.92,WSW,253,4.0,16.0,90,0.00,,,0.26,Wunderground v.1.15,2009-02-06 00:04:00,
2009-02-05 16:06:00,48.1,45.3,29.92,WNW,297,5.0,16.0,90,0.00,,,0.26,Wunderground v.1.15,2009-02-06 00:06:00,
2009-02-05 16:08:00,48.2,45.4,29.92,WNW,294,9.0,16.0,90,0.00,,,0.26,Wunderground v.1.15,2009-02-06 00:08:00,
2009-02-05 16:09:00,48.2,45.4,29.92,WSW,246,3.0,16.0,90,0.00,,,0.26,Wunderground v.1.15,2009-02-06 00:09:00,
2009-02-05 16:11:00,48.2,45.4,29.92,WSW,242,4.0,5.0,90,0.00,,,0.26,Wunderground v.1.15,2009-02-06 00:11:00,
2009-02-05 16:13:00,48.2,45.4,29.92,WSW,256,6.0,7.0,90,0.00,,,0.26,Wunderground v.1.15,2009-02-06 00:13:00,
2009-02-05 16:14:00,48.2,46.6,29.92,SW,230,0.0,7.0,94,0.00,,,0.26,Wunderground v.1.15,2009-02-06 00:14:00,
2009-02-05 16:16:00,48.2,45.4,29.92,SW,215,4.0,9.0,90,0.00,,,0.26,Wunderground v.1.15,2009-02-06 00:16:00,
2009-02-05 16:19:00,48.1,45.3,29.92,WSW,252,0.0,9.0,90,0.00,,,0.26,Wunderground v.1.15,2009-02-06 00:19:00,
2009-02-05 16:21:00,48.1,45.6,29.92,SW,236,3.0,11.0,91,0.00,,,0.26,Wunderground v.1.15,2009-02-06 00:21:00,
2009-02-05 16:24:00,47.9,45.4,29.92,SW,229,1.0,11.0,91,0.00,,,0.26,Wunderground v.1.15,2009-02-06 00:24:00,
2009-02-05 16:25:00,47.9,45.4,29.92,West,273,3.0,11.0,91,0.00,,,0.26,Wunderground v.1.15,2009-02-06 00:25:00,
2009-02-05 16:26:00,47.8,45.3,29.92,West,279,5.0,11.0,91,0.00,,,0.26,Wunderground v.1.15,2009-02-06 00:26:00,
2009-02-05 16:29:00,47.6,45.1,29.92,NNW,337,1.0,11.0,91,0.00,,,0.26,Wunderground v.1.15,2009-02-06 00:29:00,
2009-02-05 16:30:00,47.6,45.4,29.92,SW,234,3.0,5.0,92,0.00,,,0.26,Wunderground v.1.15,2009-02-06 00:30:00,
2009-02-05 16:32:00,47.5,45.3,29.92,SSW,203,4.0,10.0,92,0.00,,,0.26,Wunderground v.1.15,2009-02-06 00:32:00,
2009-02-05 16:34:00,47.4,45.2,29.92,West,280,3.0,11.0,92,0.00,,,0.26,Wunderground v.1.15,2009-02-06 00:34:00,
2009-02-05 16:36:00,47.3,45.1,29.92,NW,326,5.0,12.0,92,0.00,,,0.26,Wunderground v.1.15,2009-02-06 00:36:00,
2009-02-05 16:37:00,47.2,45.0,29.92,WSW,248,2.0,12.0,92,0.00,,,0.26,Wunderground v.1.15,2009-02-06 00:37:00,
2009-02-05 16:39:00,47.0,44.8,29.92,West,275,5.0,13.0,92,0.00,,,0.26,Wunderground v.1.15,2009-02-06 00:39:00,
2009-02-05 16:40:00,47.0,44.8,29.92,West,262,3.0,5.0,92,0.00,,,0.26,Wunderground v.1.15,2009-02-06 00:40:00,
2009-02-05 16:41:00,47.0,44.8,29.92,WNW,288,5.0,6.0,92,0.00,,,0.26,Wunderground v.1.15,2009-02-06 00:41:00,
2009-02-05 16:42:00,46.9,44.7,29.92,West,261,9.0,10.0,92,0.00,,,0.26,Wunderground v.1.15,2009-02-06 00:42:00,
2009-02-05 16:44:00,46.9,44.7,29.92,North,355,1.0,10.0,92,0.00,,,0.26,Wunderground v.1.15,2009-02-06 00:44:00,
2009-02-05 16:45:00,46.8,44.9,29.92,SW,227,4.0,10.0,93,0.00,,,0.26,Wunderground v.1.15,2009-02-06 00:45:00,
2009-02-05 16:46:00,46.8,44.9,29.92,SW,232,0.0,10.0,93,0.00,,,0.26,Wunderground v.1.15,2009-02-06 00:46:00,
2009-02-05 16:47:00,46.7,44.8,29.92,WNW,287,1.0,10.0,93,0.00,,,0.26,Wunderground v.1.15,2009-02-06 00:47:00,
2009-02-05 16:49:00,46.7,44.8,29.92,West,261,3.0,10.0,93,0.00,,,0.26,Wunderground v.1.15,2009-02-06 00:49:00,
2009-02-05 16:50:00,46.7,44.8,29.92,NW,309,0.0,4.0,93,0.00,,,0.26,Wunderground v.1.15,2009-02-06 00:50:00,
2009-02-05 16:51:00,46.7,44.8,29.92,SSW,206,5.0,5.0,93,0.00,,,0.26,Wunderground v.1.15,2009-02-06 00:51:00,
2009-02-05 16:53:00,46.7,44.8,29.92,West,265,1.0,5.0,93,0.00,,,0.26,Wunderground v.1.15,2009-02-06 00:53:00,
2009-02-05 16:55:00,46.7,44.8,29.92,WSW,250,2.0,5.0,93,0.00,,,0.26,Wunderground v.1.15,2009-02-06 00:55:00,
2009-02-05 16:57:00,46.6,44.7,29.92,SW,233,1.0,6.0,93,0.00,,,0.26,Wunderground v.1.15,2009-02-06 00:57:00,
2009-02-05 16:59:00,46.6,44.7,29.91,West,269,2.0,9.0,93,0.00,,,0.26,Wunderground v.1.15,2009-02-06 00:59:00,
2009-02-05 17:00:00,46.6,45.0,29.92,West,270,1.0,3.0,94,0.00,,,0.26,Wunderground v.1.15,2009-02-06 01:00:00,
2009-02-05 17:02:00,46.6,45.0,29.92,SW,219,1.0,5.0,94,0.00,,,0.26,Wunderground v.1.15,2009-02-06 01:02:00,
2009-02-05 17:04:00,46.5,44.9,29.92,WSW,256,2.0,5.0,94,0.00,,,0.26,Wunderground v.1.15,2009-02-06 01:04:00,
2009-02-05 17:05:00,46.5,44.9,29.92,West,281,4.0,5.0,94,0.00,,,0.26,Wunderground v.1.15,2009-02-06 01:05:00,
2009-02-05 17:06:00,46.5,44.9,29.92,WSW,246,1.0,5.0,94,0.00,,,0.26,Wunderground v.1.15,2009-02-06 01:06:00,
2009-02-05 17:08:00,46.5,44.9,29.92,WSW,249,9.0,9.0,94,0.00,,,0.26,Wunderground v.1.15,2009-02-06 01:08:00,
2009-02-05 17:09:00,46.5,44.9,29.92,SSW,205,5.0,10.0,94,0.00,,,0.26,Wunderground v.1.15,2009-02-06 01:09:00,
2009-02-05 17:10:00,46.5,44.9,29.92,West,274,2.0,12.0,94,0.00,,,0.26,Wunderground v.1.15,2009-02-06 01:10:00,
2009-02-05 17:11:00,46.4,44.8,29.92,SW,221,2.0,12.0,94,0.00,,,0.26,Wunderground v.1.15,2009-02-06 01:11:00,
2009-02-05 17:13:00,46.4,44.8,29.92,SW,226,1.0,12.0,94,0.00,,,0.26,Wunderground v.1.15,2009-02-06 01:13:00,
2009-02-05 17:14:00,46.4,44.8,29.92,SW,226,4.0,12.0,94,0.00,,,0.26,Wunderground v.1.15,2009-02-06 01:14:00,
2009-02-05 17:16:00,46.4,44.8,29.92,NW,304,0.0,12.0,94,0.00,,,0.26,Wunderground v.1.15,2009-02-06 01:16:00,
2009-02-05 17:18:00,46.4,44.8,29.92,WNW,288,2.0,12.0,94,0.00,,,0.26,Wunderground v.1.15,2009-02-06 01:18:00,
2009-02-05 17:20:00,46.4,44.8,29.92,SW,219,0.0,3.0,94,0.00,,,0.26,Wunderground v.1.15,2009-02-06 01:20:00,
2009-02-05 17:21:00,46.4,44.8,29.92,SW,219,2.0,3.0,94,0.00,,,0.26,Wunderground v.1.15,2009-02-06 01:21:00,
2009-02-05 17:23:00,46.4,44.8,29.92,West,273,0.0,3.0,94,0.00,,,0.26,Wunderground v.1.15,2009-02-06 01:23:00,
2009-02-05 17:25:00,46.4,45.0,29.92,SW,223,0.0,3.0,95,0.00,,,0.26,Wunderground v.1.15,2009-02-06 01:25:00,
2009-02-05 17:26:00,46.4,45.0,29.92,SW,223,0.0,3.0,95,0.00,,,0.26,Wunderground v.1.15,2009-02-06 01:26:00,
2009-02-05 17:28:00,46.3,44.9,29.92,SW,223,0.0,3.0,95,0.00,,,0.26,Wunderground v.1.15,2009-02-06 01:28:00,
2009-02-05 17:31:00,46.3,44.9,29.92,NW,309,5.0,5.0,95,0.00,,,0.26,Wunderground v.1.15,2009-02-06 01:31:00,
2009-02-05 17:33:00,46.3,44.9,29.92,WNW,295,3.0,5.0,95,0.00,,,0.26,Wunderground v.1.15,2009-02-06 01:33:00,
2009-02-05 17:36:00,46.2,44.8,29.92,SSW,196,3.0,7.0,95,0.00,,,0.27,Wunderground v.1.15,2009-02-06 01:36:00,
2009-02-05 17:37:00,46.2,44.8,29.92,NNW,334,1.0,7.0,95,0.00,,,0.27,Wunderground v.1.15,2009-02-06 01:37:00,
2009-02-05 17:38:00,46.2,44.8,29.92,WNW,296,0.0,7.0,95,0.00,,,0.27,Wunderground v.1.15,2009-02-06 01:38:00,
2009-02-05 17:41:00,46.2,44.8,29.92,SW,221,6.0,7.0,95,0.00,,,0.27,Wunderground v.1.15,2009-02-06 01:41:00,
2009-02-05 17:43:00,46.2,44.8,29.92,West,272,2.0,7.0,95,0.00,,,0.27,Wunderground v.1.15,2009-02-06 01:43:00,
2009-02-05 17:46:00,46.2,44.8,29.92,West,272,3.0,7.0,95,0.00,,,0.27,Wunderground v.1.15,2009-02-06 01:46:00,
2009-02-05 17:47:00,46.2,44.8,29.92,West,273,3.0,7.0,95,0.00,,,0.27,Wunderground v.1.15,2009-02-06 01:47:00,
2009-02-05 17:48:00,46.2,44.8,29.92,SSW,205,4.0,7.0,95,0.00,,,0.27,Wunderground v.1.15,2009-02-06 01:48:00,
2009-02-05 17:51:00,46.1,45.0,29.92,SSW,192,2.0,5.0,96,0.00,,,0.27,Wunderground v.1.15,2009-02-06 01:51:00,
2009-02-05 17:52:00,46.1,45.0,29.92,SSW,213,5.0,5.0,96,0.00,,,0.27,Wunderground v.1.15,2009-02-06 01:52:00,
2009-02-05 17:53:00,46.1,45.0,29.92,SW,214,0.0,6.0,96,0.00,,,0.27,Wunderground v.1.15,2009-02-06 01:53:00,
2009-02-05 17:56:00,46.1,45.0,29.92,West,277,0.0,6.0,96,0.00,,,0.27,Wunderground v.1.15,2009-02-06 01:56:00,
2009-02-05 17:57:00,46.1,45.0,29.92,West,277,1.0,6.0,96,0.00,,,0.27,Wunderground v.1.15,2009-02-06 01:57:00,
2009-02-05 17:58:00,46.0,44.9,29.92,West,276,3.0,6.0,96,0.00,,,0.27,Wunderground v.1.15,2009-02-06 01:58:00,
2009-02-05 18:01:00,46.0,44.9,29.92,South,190,4.0,4.0,96,0.00,,,0.27,Wunderground v.1.15,2009-02-06 02:01:00,
2009-02-05 18:03:00,46.0,44.9,29.92,SSW,210,5.0,8.0,96,0.00,,,0.27,Wunderground v.1.15,2009-02-06 02:03:00,
2009-02-05 18:04:00,46.0,44.9,29.92,SSW,210,3.0,8.0,96,0.00,,,0.27,Wunderground v.1.15,2009-02-06 02:04:00,
2009-02-05 18:07:00,45.9,44.8,29.92,SSW,204,5.0,8.0,96,0.00,,,0.27,Wunderground v.1.15,2009-02-06 02:07:00,
2009-02-05 18:08:00,45.9,44.8,29.92,SSW,203,3.0,8.0,96,0.00,,,0.27,Wunderground v.1.15,2009-02-06 02:08:00,
2009-02-05 18:09:00,45.9,44.8,29.92,South,186,3.0,8.0,96,0.00,,,0.27,Wunderground v.1.15,2009-02-06 02:09:00,
2009-02-05 18:13:00,45.9,44.8,29.92,SW,233,2.0,4.0,96,0.00,,,0.27,Wunderground v.1.15,2009-02-06 02:13:00,
2009-02-05 18:14:00,45.9,44.8,29.92,SW,234,1.0,4.0,96,0.00,,,0.27,Wunderground v.1.15,2009-02-06 02:14:00,
2009-02-05 18:18:00,45.9,44.8,29.92,SSW,210,0.0,5.0,96,0.00,,,0.27,Wunderground v.1.15,2009-02-06 02:18:00,
2009-02-05 18:19:00,45.9,44.8,29.92,SSW,211,0.0,5.0,96,0.00,,,0.27,Wunderground v.1.15,2009-02-06 02:19:00,
2009-02-05 18:23:00,45.9,44.8,29.92,West,276,1.0,3.0,96,0.00,,,0.27,Wunderground v.1.15,2009-02-06 02:23:00,
2009-02-05 18:24:00,45.9,44.8,29.92,SW,223,3.0,4.0,96,0.00,,,0.27,Wunderground v.1.15,2009-02-06 02:24:00,
2009-02-05 18:28:00,45.8,44.7,29.92,West,263,1.0,4.0,96,0.00,,,0.27,Wunderground v.1.15,2009-02-06 02:28:00,
2009-02-05 18:29:00,45.8,44.7,29.92,WNW,283,0.0,4.0,96,0.00,,,0.27,Wunderground v.1.15,2009-02-06 02:29:00,
2009-02-05 18:33:00,45.8,44.7,29.92,WNW,283,2.0,3.0,96,0.00,,,0.27,Wunderground v.1.15,2009-02-06 02:33:00,
2009-02-05 18:34:00,45.8,44.7,29.92,WNW,283,0.0,3.0,96,0.00,,,0.27,Wunderground v.1.15,2009-02-06 02:34:00,
2009-02-05 18:35:00,45.8,44.7,29.92,WNW,283,1.0,3.0,96,0.00,,,0.27,Wunderground v.1.15,2009-02-06 02:35:00,
2009-02-05 18:38:00,45.6,44.5,29.92,SSW,210,1.0,6.0,96,0.00,,,0.27,Wunderground v.1.15,2009-02-06 02:38:00,
2009-02-05 18:40:00,45.6,44.5,29.92,SSW,205,2.0,2.0,96,0.00,,,0.27,Wunderground v.1.15,2009-02-06 02:40:00,
2009-02-05 18:43:00,45.5,44.4,29.92,SW,221,5.0,7.0,96,0.00,,,0.27,Wunderground v.1.15,2009-02-06 02:43:00,
2009-02-05 18:44:00,45.5,44.4,29.92,SW,221,4.0,7.0,96,0.00,,,0.27,Wunderground v.1.15,2009-02-06 02:44:00,
2009-02-05 18:45:00,45.5,44.4,29.92,SW,218,3.0,7.0,96,0.00,,,0.27,Wunderground v.1.15,2009-02-06 02:45:00,
2009-02-05 18:49:00,45.4,44.3,29.92,SSW,205,0.0,7.0,96,0.00,,,0.27,Wunderground v.1.15,2009-02-06 02:49:00,
2009-02-05 18:50:00,45.5,44.4,29.92,SSW,205,2.0,3.0,96,0.00,,,0.27,Wunderground v.1.15,2009-02-06 02:50:00,
2009-02-05 18:54:00,45.5,44.4,29.92,SSE,164,3.0,5.0,96,0.00,,,0.27,Wunderground v.1.15,2009-02-06 02:54:00,
2009-02-05 18:55:00,45.6,44.5,29.92,SSW,206,11.0,11.0,96,0.00,,,0.27,Wunderground v.1.15,2009-02-06 02:55:00,
2009-02-05 18:56:00,45.5,44.4,29.92,SSW,207,5.0,11.0,96,0.00,,,0.27,Wunderground v.1.15,2009-02-06 02:56:00,
2009-02-05 18:59:00,45.5,44.4,29.92,South,176,2.0,11.0,96,0.00,,,0.27,Wunderground v.1.15,2009-02-06 02:59:00,
2009-02-05 19:00:00,45.6,44.5,29.92,SSW,211,2.0,3.0,96,0.00,,,0.27,Wunderground v.1.15,2009-02-06 03:00:00,
2009-02-05 19:01:00,45.6,44.5,29.92,WNW,283,2.0,3.0,96,0.00,,,0.27,Wunderground v.1.15,2009-02-06 03:01:00,
2009-02-05 19:04:00,45.5,44.4,29.92,SSW,203,0.0,7.0,96,0.00,,,0.27,Wunderground v.1.15,2009-02-06 03:04:00,
2009-02-05 19:05:00,45.5,44.4,29.92,SSW,203,2.0,7.0,96,0.00,,,0.27,Wunderground v.1.15,2009-02-06 03:05:00,
2009-02-05 19:06:00,45.5,44.2,29.92,SSW,205,4.0,7.0,95,0.00,,,0.27,Wunderground v.1.15,2009-02-06 03:06:00,
2009-02-05 19:09:00,45.4,44.1,29.92,SW,219,0.0,7.0,95,0.00,,,0.27,Wunderground v.1.15,2009-02-06 03:09:00,
2009-02-05 19:10:00,45.4,44.1,29.92,WNW,294,0.0,3.0,95,0.00,,,0.27,Wunderground v.1.15,2009-02-06 03:10:00,
2009-02-05 19:11:00,45.4,44.1,29.92,WNW,294,0.0,3.0,95,0.00,,,0.27,Wunderground v.1.15,2009-02-06 03:11:00,
2009-02-05 19:12:00,45.4,44.1,29.92,SSW,211,6.0,6.0,95,0.00,,,0.27,Wunderground v.1.15,2009-02-06 03:12:00,
2009-02-05 19:15:00,45.3,44.0,29.92,SSW,203,2.0,9.0,95,0.00,,,0.27,Wunderground v.1.15,2009-02-06 03:15:00,
2009-02-05 19:16:00,45.3,44.0,29.92,SW,223,4.0,9.0,95,0.00,,,0.27,Wunderground v.1.15,2009-02-06 03:16:00,
2009-02-05 19:17:00,45.3,44.0,29.92,SW,223,6.0,9.0,95,0.00,,,0.27,Wunderground v.1.15,2009-02-06 03:17:00,
2009-02-05 19:20:00,45.2,43.6,29.92,SW,236,6.0,11.0,94,0.00,,,0.27,Wunderground v.1.15,2009-02-06 03:20:00,
2009-02-05 19:21:00,45.2,43.6,29.92,WSW,246,1.0,11.0,94,0.00,,,0.27,Wunderground v.1.15,2009-02-06 03:21:00,
2009-02-05 19:22:00,45.2,43.6,29.92,WSW,237,4.0,11.0,94,0.00,,,0.27,Wunderground v.1.15,2009-02-06 03:22:00,
2009-02-05 19:25:00,45.2,43.6,29.92,SW,219,1.0,11.0,94,0.00,,,0.27,Wunderground v.1.15,2009-02-06 03:25:00,
2009-02-05 19:26:00,45.2,43.6,29.92,WSW,240,5.0,11.0,94,0.00,,,0.27,Wunderground v.1.15,2009-02-06 03:26:00,
2009-02-05 19:27:00,45.2,43.6,29.92,West,279,1.0,11.0,94,0.00,,,0.27,Wunderground v.1.15,2009-02-06 03:27:00,
2009-02-05 19:30:00,45.2,43.6,29.92,WNW,291,3.0,4.0,94,0.00,,,0.27,Wunderground v.1.15,2009-02-06 03:30:00,
2009-02-05 19:31:00,45.1,43.5,29.92,WNW,291,1.0,4.0,94,0.00,,,0.27,Wunderground v.1.15,2009-02-06 03:31:00,
2009-02-05 19:33:00,45.1,43.5,29.92,West,271,1.0,7.0,94,0.00,,,0.27,Wunderground v.1.15,2009-02-06 03:33:00,
2009-02-05 19:36:00,45.0,43.4,29.92,SW,229,3.0,7.0,94,0.00,,,0.27,Wunderground v.1.15,2009-02-06 03:36:00,
2009-02-05 19:38:00,45.0,43.4,29.93,West,279,2.0,7.0,94,0.00,,,0.27,Wunderground v.1.15,2009-02-06 03:38:00,
2009-02-05 19:41:00,45.0,43.4,29.92,SW,221,3.0,3.0,94,0.00,,,0.27,Wunderground v.1.15,2009-02-06 03:41:00,
2009-02-05 19:43:00,45.0,43.4,29.92,SW,222,5.0,7.0,94,0.00,,,0.27,Wunderground v.1.15,2009-02-06 03:43:00,
2009-02-05 19:46:00,44.9,43.3,29.92,SW,218,5.0,7.0,94,0.00,,,0.27,Wunderground v.1.15,2009-02-06 03:46:00,
2009-02-05 19:47:00,44.9,43.3,29.92,SW,227,4.0,7.0,94,0.00,,,0.27,Wunderground v.1.15,2009-02-06 03:47:00,
2009-02-05 19:48:00,44.9,43.3,29.92,SW,226,2.0,7.0,94,0.00,,,0.27,Wunderground v.1.15,2009-02-06 03:48:00,
2009-02-05 19:51:00,45.0,43.4,29.92,SW,222,0.0,9.0,94,0.00,,,0.27,Wunderground v.1.15,2009-02-06 03:51:00,
2009-02-05 19:52:00,45.0,43.4,29.92,SW,222,3.0,9.0,94,0.00,,,0.27,Wunderground v.1.15,2009-02-06 03:52:00,
2009-02-05 19:53:00,45.0,43.4,29.91,WSW,238,1.0,9.0,94,0.00,,,0.27,Wunderground v.1.15,2009-02-06 03:53:00,
2009-02-05 19:56:00,45.0,43.4,29.92,SSW,192,4.0,9.0,94,0.00,,,0.27,Wunderground v.1.15,2009-02-06 03:56:00,
2009-02-05 19:57:00,45.0,43.4,29.92,South,176,2.0,9.0,94,0.00,,,0.27,Wunderground v.1.15,2009-02-06 03:57:00,
2009-02-05 19:58:00,45.0,43.4,29.92,NW,311,1.0,9.0,94,0.00,,,0.27,Wunderground v.1.15,2009-02-06 03:58:00,
2009-02-05 20:02:00,45.0,43.4,29.92,SW,235,3.0,11.0,94,0.00,,,0.27,Wunderground v.1.15,2009-02-06 04:02:00,
2009-02-05 20:04:00,45.0,43.4,29.92,SW,215,6.0,11.0,94,0.00,,,0.27,Wunderground v.1.15,2009-02-06 04:04:00,
2009-02-05 20:07:00,45.1,43.5,29.91,WSW,256,3.0,12.0,94,0.00,,,0.27,Wunderground v.1.15,2009-02-06 04:07:00,
2009-02-05 20:08:00,45.0,43.4,29.91,WSW,247,5.0,12.0,94,0.00,,,0.27,Wunderground v.1.15,2009-02-06 04:08:00,
2009-02-05 20:09:00,45.1,43.5,29.92,SW,224,3.0,12.0,94,0.00,,,0.27,Wunderground v.1.15,2009-02-06 04:09:00,
2009-02-05 20:12:00,45.1,43.5,29.92,SW,226,2.0,6.0,94,0.00,,,0.27,Wunderground v.1.15,2009-02-06 04:12:00,
2009-02-05 20:13:00,45.1,43.5,29.92,SW,236,2.0,6.0,94,0.00,,,0.27,Wunderground v.1.15,2009-02-06 04:13:00,
2009-02-05 20:14:00,45.1,43.5,29.92,WSW,240,2.0,7.0,94,0.00,,,0.27,Wunderground v.1.15,2009-02-06 04:14:00,
2009-02-05 20:17:00,45.2,43.6,29.92,SW,234,5.0,9.0,94,0.00,,,0.27,Wunderground v.1.15,2009-02-06 04:17:00,
2009-02-05 20:18:00,45.2,43.6,29.92,SW,235,5.0,9.0,94,0.00,,,0.27,Wunderground v.1.15,2009-02-06 04:18:00,
2009-02-05 20:19:00,45.2,43.6,29.92,WNW,292,1.0,10.0,94,0.00,,,0.27,Wunderground v.1.15,2009-02-06 04:19:00,
2009-02-05 20:22:00,45.2,43.6,29.92,West,275,1.0,6.0,94,0.00,,,0.27,Wunderground v.1.15,2009-02-06 04:22:00,
2009-02-05 20:23:00,45.2,43.6,29.91,WNW,282,3.0,6.0,94,0.00,,,0.27,Wunderground v.1.15,2009-02-06 04:23:00,
2009-02-05 20:24:00,45.2,43.6,29.91,WSW,241,3.0,6.0,94,0.00,,,0.27,Wunderground v.1.15,2009-02-06 04:24:00,
2009-02-05 20:27:00,45.2,43.6,29.91,WNW,283,5.0,10.0,94,0.00,,,0.27,Wunderground v.1.15,2009-02-06 04:27:00,
2009-02-05 20:28:00,45.2,43.6,29.91,WSW,244,1.0,10.0,94,0.00,,,0.27,Wunderground v.1.15,2009-02-06 04:28:00,
2009-02-05 20:29:00,45.2,43.6,29.92,WSW,246,1.0,10.0,94,0.00,,,0.27,Wunderground v.1.15,2009-02-06 04:29:00,
2009-02-05 20:32:00,45.3,43.4,29.92,WSW,257,3.0,4.0,93,0.00,,,0.27,Wunderground v.1.15,2009-02-06 04:32:00,
2009-02-05 20:33:00,45.3,43.4,29.92,WSW,257,3.0,4.0,93,0.00,,,0.27,Wunderground v.1.15,2009-02-06 04:33:00,
2009-02-05 20:34:00,45.3,43.4,29.92,SW,215,8.0,8.0,93,0.00,,,0.27,Wunderground v.1.15,2009-02-06 04:34:00,
2009-02-05 20:37:00,45.3,43.4,29.92,SW,220,10.0,10.0,93,0.00,,,0.27,Wunderground v.1.15,2009-02-06 04:37:00,
2009-02-05 20:38:00,45.3,43.4,29.92,West,281,2.0,10.0,93,0.00,,,0.27,Wunderground v.1.15,2009-02-06 04:38:00,
2009-02-05 20:40:00,45.3,43.4,29.92,SSW,211,9.0,9.0,93,0.00,,,0.27,Wunderground v.1.15,2009-02-06 04:40:00,
2009-02-05 20:42:00,45.2,43.3,29.92,SSW,203,0.0,9.0,93,0.00,,,0.27,Wunderground v.1.15,2009-02-06 04:42:00,
2009-02-05 20:43:00,45.2,43.3,29.92,SSW,211,7.0,9.0,93,0.00,,,0.27,Wunderground v.1.15,2009-02-06 04:43:00,
2009-02-05 20:44:00,45.2,43.3,29.92,South,188,2.0,9.0,93,0.00,,,0.27,Wunderground v.1.15,2009-02-06 04:44:00,
2009-02-05 20:45:00,45.2,43.3,29.92,SW,234,3.0,9.0,93,0.00,,,0.27,Wunderground v.1.15,2009-02-06 04:45:00,
2009-02-05 20:47:00,45.2,43.6,29.92,SW,218,5.0,9.0,94,0.00,,,0.27,Wunderground v.1.15,2009-02-06 04:47:00,
2009-02-05 20:49:00,45.2,43.6,29.92,WNW,296,3.0,9.0,94,0.00,,,0.27,Wunderground v.1.15,2009-02-06 04:49:00,
2009-02-05 20:50:00,45.2,43.6,29.92,SSW,202,6.0,7.0,94,0.00,,,0.27,Wunderground v.1.15,2009-02-06 04:50:00,
2009-02-05 20:53:00,45.2,43.6,29.92,SSW,211,4.0,10.0,94,0.00,,,0.27,Wunderground v.1.15,2009-02-06 04:53:00,
2009-02-05 20:54:00,45.2,43.6,29.92,WSW,246,5.0,10.0,94,0.00,,,0.27,Wunderground v.1.15,2009-02-06 04:54:00,
2009-02-05 20:55:00,45.2,43.6,29.92,SW,219,4.0,10.0,94,0.00,,,0.27,Wunderground v.1.15,2009-02-06 04:55:00,
2009-02-05 20:58:00,45.3,43.7,29.92,SW,229,3.0,10.0,94,0.00,,,0.27,Wunderground v.1.15,2009-02-06 04:58:00,
2009-02-05 20:59:00,45.3,43.7,29.92,SW,217,4.0,10.0,94,0.00,,,0.27,Wunderground v.1.15,2009-02-06 04:59:00,
2009-02-05 21:00:00,45.3,43.7,29.92,WNW,299,4.0,6.0,94,0.00,,,0.27,Wunderground v.1.15,2009-02-06 05:00:00,
2009-02-05 21:05:00,45.4,43.8,29.92,NW,321,1.0,11.0,94,0.00,,,0.27,Wunderground v.1.15,2009-02-06 05:05:00,
2009-02-05 21:10:00,45.5,44.2,29.92,SW,224,4.0,4.0,95,0.00,,,0.27,Wunderground v.1.15,2009-02-06 05:10:00,
2009-02-05 21:11:00,45.5,44.2,29.92,SSW,203,5.0,10.0,95,0.00,,,0.27,Wunderground v.1.15,2009-02-06 05:11:00,
2009-02-05 21:15:00,45.5,43.9,29.92,SW,216,7.0,10.0,94,0.00,,,0.27,Wunderground v.1.15,2009-02-06 05:15:00,
2009-02-05 21:16:00,45.5,43.9,29.92,SW,217,3.0,10.0,94,0.00,,,0.27,Wunderground v.1.15,2009-02-06 05:16:00,
2009-02-05 21:20:00,45.6,44.0,29.92,WSW,240,0.0,4.0,94,0.00,,,0.27,Wunderground v.1.15,2009-02-06 05:20:00,
2009-02-05 21:21:00,45.6,44.0,29.92,SW,214,5.0,5.0,94,0.00,,,0.27,Wunderground v.1.15,2009-02-06 05:21:00,
2009-02-05 21:25:00,45.5,43.9,29.92,SW,229,0.0,7.0,94,0.00,,,0.27,Wunderground v.1.15,2009-02-06 05:25:00,
2009-02-05 21:26:00,45.5,43.9,29.92,SW,232,2.0,7.0,94,0.00,,,0.27,Wunderground v.1.15,2009-02-06 05:26:00,
2009-02-05 21:27:00,45.5,43.9,29.92,SW,234,2.0,7.0,94,0.00,,,0.27,Wunderground v.1.15,2009-02-06 05:27:00,
2009-02-05 21:30:00,45.5,43.9,29.92,SW,215,0.0,8.0,94,0.00,,,0.27,Wunderground v.1.15,2009-02-06 05:30:00,
2009-02-05 21:31:00,45.5,43.9,29.92,NW,310,3.0,8.0,94,0.00,,,0.27,Wunderground v.1.15,2009-02-06 05:31:00,
2009-02-05 21:32:00,45.5,44.2,29.91,WNW,282,2.0,8.0,95,0.00,,,0.27,Wunderground v.1.15,2009-02-06 05:32:00,
2009-02-05 21:35:00,45.5,44.2,29.92,SW,219,3.0,8.0,95,0.00,,,0.27,Wunderground v.1.15,2009-02-06 05:35:00,
2009-02-05 21:36:00,45.5,44.2,29.91,SSW,211,1.0,8.0,95,0.00,,,0.27,Wunderground v.1.15,2009-02-06 05:36:00,
2009-02-05 21:38:00,45.5,44.2,29.92,WSW,249,3.0,8.0,95,0.00,,,0.27,Wunderground v.1.15,2009-02-06 05:38:00,
2009-02-05 21:41:00,45.6,44.3,29.92,SSW,200,11.0,11.0,95,0.00,,,0.28,Wunderground v.1.15,2009-02-06 05:41:00,
2009-02-05 21:43:00,45.6,44.3,29.92,West,273,3.0,11.0,95,0.00,,,0.28,Wunderground v.1.15,2009-02-06 05:43:00,
2009-02-05 21:46:00,45.7,44.4,29.92,SW,234,3.0,11.0,95,0.00,,,0.28,Wunderground v.1.15,2009-02-06 05:46:00,
2009-02-05 21:47:00,45.7,44.4,29.92,SW,216,4.0,11.0,95,0.08,,,0.28,Wunderground v.1.15,2009-02-06 05:47:00,
2009-02-05 21:48:00,45.7,44.6,29.92,SW,222,5.0,11.0,96,0.08,,,0.29,Wunderground v.1.15,2009-02-06 05:48:00,
2009-02-05 21:51:00,45.8,44.7,29.92,West,263,4.0,13.0,96,0.08,,,0.29,Wunderground v.1.15,2009-02-06 05:51:00,
2009-02-05 21:52:00,45.8,44.7,29.92,SSW,213,7.0,13.0,96,0.08,,,0.29,Wunderground v.1.15,2009-02-06 05:52:00,
2009-02-05 21:53:00,45.8,44.7,29.92,SSW,201,3.0,13.0,96,0.08,,,0.29,Wunderground v.1.15,2009-02-06 05:53:00,
2009-02-05 21:56:00,45.8,44.7,29.91,West,268,2.0,13.0,96,0.06,,,0.29,Wunderground v.1.15,2009-02-06 05:56:00,
2009-02-05 21:57:00,45.8,44.7,29.91,SW,233,1.0,13.0,96,0.06,,,0.29,Wunderground v.1.15,2009-02-06 05:57:00,
2009-02-05 21:59:00,45.8,44.7,29.92,SW,236,1.0,13.0,96,0.05,,,0.29,Wunderground v.1.15,2009-02-06 05:59:00,
2009-02-05 22:01:00,45.8,44.7,29.91,SSW,210,8.0,8.0,96,0.04,,,0.29,Wunderground v.1.15,2009-02-06 06:01:00,
2009-02-05 22:02:00,45.9,44.8,29.91,WSW,255,3.0,9.0,96,0.04,,,0.29,Wunderground v.1.15,2009-02-06 06:02:00,
2009-02-05 22:04:00,45.9,44.8,29.92,WSW,248,3.0,9.0,96,0.00,,,0.29,Wunderground v.1.15,2009-02-06 06:04:00,
2009-02-05 22:07:00,45.9,44.8,29.91,WSW,242,4.0,9.0,96,0.00,,,0.29,Wunderground v.1.15,2009-02-06 06:07:00,
2009-02-05 22:08:00,45.9,44.8,29.91,West,269,4.0,9.0,96,0.00,,,0.29,Wunderground v.1.15,2009-02-06 06:08:00,
2009-02-05 22:09:00,45.9,44.8,29.91,SW,233,1.0,9.0,96,0.00,,,0.29,Wunderground v.1.15,2009-02-06 06:09:00,
2009-02-05 22:12:00,45.9,44.8,29.91,West,259,2.0,5.0,96,0.00,,,0.29,Wunderground v.1.15,2009-02-06 06:12:00,
2009-02-05 22:13:00,45.9,44.8,29.92,SW,227,2.0,5.0,96,0.00,,,0.29,Wunderground v.1.15,2009-02-06 06:13:00,
2009-02-05 22:15:00,45.8,44.7,29.91,WSW,240,0.0,5.0,96,0.00,,,0.29,Wunderground v.1.15,2009-02-06 06:15:00,
2009-02-05 22:17:00,45.9,44.8,29.92,NW,305,5.0,8.0,96,0.00,,,0.29,Wunderground v.1.15,2009-02-06 06:17:00,
2009-02-05 22:19:00,45.8,44.7,29.91,SW,229,1.0,8.0,96,0.00,,,0.29,Wunderground v.1.15,2009-02-06 06:19:00,
2009-02-05 22:20:00,45.8,44.7,29.91,SSW,207,7.0,8.0,96,0.00,,,0.29,Wunderground v.1.15,2009-02-06 06:20:00,
2009-02-05 22:22:00,45.8,44.7,29.91,SW,233,4.0,8.0,96,0.00,,,0.29,Wunderground v.1.15,2009-02-06 06:22:00,
2009-02-05 22:24:00,45.8,44.7,29.91,SW,225,5.0,8.0,96,0.00,,,0.29,Wunderground v.1.15,2009-02-06 06:24:00,
2009-02-05 22:25:00,45.8,44.7,29.91,SW,219,2.0,8.0,96,0.00,,,0.29,Wunderground v.1.15,2009-02-06 06:25:00,
2009-02-05 22:27:00,45.8,44.7,29.91,SSW,202,2.0,8.0,96,0.00,,,0.29,Wunderground v.1.15,2009-02-06 06:27:00,
2009-02-05 22:28:00,45.8,44.7,29.91,SSW,202,0.0,8.0,96,0.00,,,0.29,Wunderground v.1.15,2009-02-06 06:28:00,
2009-02-05 22:29:00,45.8,44.7,29.91,SW,214,1.0,8.0,96,0.00,,,0.29,Wunderground v.1.15,2009-02-06 06:29:00,
2009-02-05 22:30:00,45.8,44.7,29.91,SW,220,3.0,5.0,96,0.00,,,0.30,Wunderground v.1.15,2009-02-06 06:30:00,
2009-02-05 22:32:00,45.8,45.0,29.91,South,190,2.0,6.0,97,0.00,,,0.30,Wunderground v.1.15,2009-02-06 06:32:00,
2009-02-05 22:33:00,45.8,45.0,29.91,WSW,254,1.0,6.0,97,0.00,,,0.30,Wunderground v.1.15,2009-02-06 06:33:00,
2009-02-05 22:34:00,45.8,45.0,29.91,WSW,242,3.0,6.0,97,0.00,,,0.30,Wunderground v.1.15,2009-02-06 06:34:00,
2009-02-05 22:35:00,45.8,45.0,29.91,NW,307,10.0,10.0,97,0.00,,,0.30,Wunderground v.1.15,2009-02-06 06:35:00,
2009-02-05 22:37:00,45.8,45.0,29.91,WSW,240,3.0,10.0,97,0.00,,,0.30,Wunderground v.1.15,2009-02-06 06:37:00,
2009-02-05 22:38:00,45.9,45.1,29.91,SW,235,0.0,10.0,97,0.07,,,0.31,Wunderground v.1.15,2009-02-06 06:38:00,
2009-02-05 22:39:00,45.9,45.1,29.91,WNW,291,3.0,10.0,97,0.07,,,0.31,Wunderground v.1.15,2009-02-06 06:39:00,
2009-02-05 22:40:00,45.9,45.1,29.91,West,265,2.0,5.0,97,0.07,,,0.31,Wunderground v.1.15,2009-02-06 06:40:00,
2009-02-05 22:42:00,45.9,45.1,29.91,WSW,258,0.0,10.0,97,0.20,,,0.32,Wunderground v.1.15,2009-02-06 06:42:00,
2009-02-05 22:44:00,45.9,45.1,29.91,WSW,245,4.0,11.0,97,0.20,,,0.32,Wunderground v.1.15,2009-02-06 06:44:00,
2009-02-05 22:45:00,45.9,45.1,29.91,SW,215,7.0,11.0,97,0.13,,,0.32,Wunderground v.1.15,2009-02-06 06:45:00,
2009-02-05 22:47:00,45.9,45.1,29.91,SW,234,2.0,11.0,97,0.09,,,0.32,Wunderground v.1.15,2009-02-06 06:47:00,
2009-02-05 22:49:00,45.9,45.1,29.91,SW,228,3.0,11.0,97,0.07,,,0.32,Wunderground v.1.15,2009-02-06 06:49:00,
2009-02-05 22:51:00,45.9,45.1,29.91,South,191,10.0,11.0,97,0.06,,,0.32,Wunderground v.1.15,2009-02-06 06:51:00,
2009-02-05 22:52:00,45.9,45.1,29.91,SW,223,4.0,11.0,97,0.05,,,0.32,Wunderground v.1.15,2009-02-06 06:52:00,
2009-02-05 22:54:00,45.9,45.1,29.91,SW,234,5.0,11.0,97,0.05,,,0.32,Wunderground v.1.15,2009-02-06 06:54:00,
2009-02-05 22:56:00,45.8,45.0,29.91,West,275,0.0,19.0,97,0.04,,,0.32,Wunderground v.1.15,2009-02-06 06:56:00,
2009-02-05 22:58:00,45.8,45.0,29.91,SW,218,2.0,19.0,97,0.04,,,0.32,Wunderground v.1.15,2009-02-06 06:58:00,
2009-02-05 22:59:00,45.8,45.0,29.91,SW,218,6.0,19.0,97,0.00,,,0.32,Wunderground v.1.15,2009-02-06 06:59:00,
2009-02-05 23:00:00,45.8,45.0,29.91,West,263,3.0,4.0,97,0.00,,,0.32,Wunderground v.1.15,2009-02-06 07:00:00,
2009-02-05 23:01:00,45.9,45.1,29.91,SW,223,3.0,6.0,97,0.00,,,0.32,Wunderground v.1.15,2009-02-06 07:01:00,
2009-02-05 23:03:00,45.9,45.1,29.91,WSW,242,2.0,10.0,97,0.00,,,0.32,Wunderground v.1.15,2009-02-06 07:03:00,
2009-02-05 23:04:00,45.9,45.1,29.91,SW,233,6.0,11.0,97,0.00,,,0.32,Wunderground v.1.15,2009-02-06 07:04:00,
2009-02-05 23:05:00,45.9,45.1,29.91,SW,219,6.0,11.0,97,0.00,,,0.32,Wunderground v.1.15,2009-02-06 07:05:00,
2009-02-05 23:06:00,45.9,45.1,29.91,West,263,5.0,11.0,97,0.00,,,0.32,Wunderground v.1.15,2009-02-06 07:06:00,
2009-02-05 23:08:00,45.9,45.1,29.91,WSW,257,3.0,11.0,97,0.00,,,0.32,Wunderground v.1.15,2009-02-06 07:08:00,
2009-02-05 23:09:00,45.9,45.1,29.91,West,279,4.0,11.0,97,0.00,,,0.32,Wunderground v.1.15,2009-02-06 07:09:00,
2009-02-05 23:10:00,45.9,45.1,29.91,West,280,5.0,8.0,97,0.00,,,0.32,Wunderground v.1.15,2009-02-06 07:10:00,
2009-02-05 23:11:00,45.9,45.1,29.91,SW,224,3.0,10.0,97,0.00,,,0.32,Wunderground v.1.15,2009-02-06 07:11:00,
2009-02-05 23:13:00,45.9,45.1,29.91,SW,236,6.0,10.0,97,0.00,,,0.32,Wunderground v.1.15,2009-02-06 07:13:00,
2009-02-05 23:14:00,45.9,45.1,29.91,WSW,244,1.0,10.0,97,0.00,,,0.32,Wunderground v.1.15,2009-02-06 07:14:00,
2009-02-05 23:15:00,45.9,45.1,29.91,SW,236,2.0,10.0,97,0.00,,,0.32,Wunderground v.1.15,2009-02-06 07:15:00,
2009-02-05 23:16:00,45.8,45.0,29.91,SW,236,4.0,10.0,97,0.00,,,0.32,Wunderground v.1.15,2009-02-06 07:16:00,
2009-02-05 23:18:00,45.8,45.0,29.91,WNW,294,8.0,10.0,97,0.00,,,0.32,Wunderground v.1.15,2009-02-06 07:18:00,
2009-02-05 23:19:00,45.9,45.1,29.91,SW,217,2.0,12.0,97,0.00,,,0.32,Wunderground v.1.15,2009-02-06 07:19:00,
2009-02-05 23:20:00,45.9,45.1,29.91,WSW,240,4.0,5.0,97,0.00,,,0.32,Wunderground v.1.15,2009-02-06 07:20:00,
2009-02-05 23:22:00,45.8,45.0,29.91,SW,217,3.0,9.0,97,0.00,,,0.32,Wunderground v.1.15,2009-02-06 07:22:00,
2009-02-05 23:23:00,45.8,45.0,29.91,SW,226,3.0,9.0,97,0.00,,,0.32,Wunderground v.1.15,2009-02-06 07:23:00,
2009-02-05 23:24:00,45.8,45.0,29.91,West,260,8.0,11.0,97,0.00,,,0.32,Wunderground v.1.15,2009-02-06 07:24:00,
2009-02-05 23:25:00,45.8,45.0,29.91,WSW,238,4.0,11.0,97,0.00,,,0.32,Wunderground v.1.15,2009-02-06 07:25:00,
2009-02-05 23:27:00,45.8,45.0,29.91,WNW,297,4.0,17.0,97,0.00,,,0.32,Wunderground v.1.15,2009-02-06 07:27:00,
2009-02-05 23:28:00,45.8,45.0,29.91,West,275,2.0,17.0,97,0.00,,,0.32,Wunderground v.1.15,2009-02-06 07:28:00,
2009-02-05 23:30:00,45.8,45.0,29.91,West,281,4.0,4.0,97,0.00,,,0.32,Wunderground v.1.15,2009-02-06 07:30:00,
2009-02-05 23:33:00,45.8,45.0,29.91,WSW,240,3.0,9.0,97,0.00,,,0.32,Wunderground v.1.15,2009-02-06 07:33:00,
2009-02-05 23:34:00,45.9,45.1,29.91,WNW,283,3.0,9.0,97,0.00,,,0.32,Wunderground v.1.15,2009-02-06 07:34:00,
2009-02-05 23:35:00,45.9,45.1,29.90,SW,230,3.0,9.0,97,0.00,,,0.32,Wunderground v.1.15,2009-02-06 07:35:00,
2009-02-05 23:38:00,45.9,45.1,29.91,WSW,238,6.0,10.0,97,0.00,,,0.32,Wunderground v.1.15,2009-02-06 07:38:00,
2009-02-05 23:39:00,45.9,45.1,29.90,SW,215,8.0,10.0,97,0.00,,,0.32,Wunderground v.1.15,2009-02-06 07:39:00,
2009-02-05 23:40:00,45.9,45.1,29.90,WNW,283,5.0,5.0,97,0.00,,,0.32,Wunderground v.1.15,2009-02-06 07:40:00,
2009-02-05 23:41:00,45.9,45.1,29.90,WNW,286,4.0,12.0,97,0.00,,,0.32,Wunderground v.1.15,2009-02-06 07:41:00,
2009-02-05 23:44:00,45.9,45.1,29.90,WSW,240,15.0,15.0,97,0.00,,,0.32,Wunderground v.1.15,2009-02-06 07:44:00,
2009-02-05 23:45:00,45.9,45.1,29.90,WSW,240,5.0,15.0,97,0.00,,,0.32,Wunderground v.1.15,2009-02-06 07:45:00,
2009-02-05 23:46:00,45.9,45.1,29.90,SW,225,8.0,15.0,97,0.00,,,0.32,Wunderground v.1.15,2009-02-06 07:46:00,
2009-02-05 23:50:00,46.0,45.2,29.90,WSW,244,2.0,6.0,97,0.00,,,0.32,Wunderground v.1.15,2009-02-06 07:50:00,
2009-02-05 23:51:00,46.0,45.2,29.90,SSW,192,1.0,9.0,97,0.00,,,0.32,Wunderground v.1.15,2009-02-06 07:51:00,
2009-02-05 23:55:00,46.1,45.3,29.90,WSW,257,2.0,9.0,97,0.00,,,0.32,Wunderground v.1.15,2009-02-06 07:55:00,
2009-02-05 23:56:00,46.1,45.3,29.90,NNW,345,10.0,10.0,97,0.00,,,0.32,Wunderground v.1.15,2009-02-06 07:56:00,